Darstellungsparameter: Aktuell verwendete Einstellungen:
Skalierung der Graphiken ... ?
xyx+y,   Skalierungsfaktor:      Skalierung: Modus: x, Faktor: 1
Darstellungszeitraum ... ?
Vom - - bis: - -   Zeitraum: 16.12.2010 - 29.12.2010
Min/Max/Avg-Anzeige ... ?
Zeige MMA aktuell
Zeige MMA Monat
Zeige MMA alles
Zeige --A aktuell
Zeige --A Monat
Zeige --A alles
Keine MMA-Anzeige
MMA:
Average (ber die Originaldaten)
MMA-Basis: 16.12.2010 - 29.12.2010
Quicknavigation für Darstellung... ?
Tage:      1T, 2T, 3T, 5T -1T -2T -3T -5T +1T +2T +3T +5T
Wochen: 1W, 2W, 3W -1W -2W -3W +1W +2W +3W
Monate: 1M, 3M, 6M -1M -3M -6M +1M +3M +6M
Jahre:    1J, 3J, 5J, 10J -1J -3J -5J -10J +1J +3J +5J +10J
Nutze für die Darstellung ... ?
Originaldaten oder Mittelwerte auf ...
Stundenbasis Tagesbasis Wochenbasis
Monatsbasis Jahresbasis      Datenbasis: Original-Daten
Darstellen als:
Statistik (Auto) Statistik J:M      Darstellung:
Zur Graphik,    zurück zur Übersicht aller Sensoren.
 
Tabellarische Datenbersicht: ?
 
Sensor: Nr:Datum:Temp:Abs-Feuchte:Windchill:Wind:
Aussen-T/F 1 16-12-2010 00:07:04 -4.8 C 2.8 g/m*3 -4.8 C 0 km/h
2 16-12-2010 00:19:04 -4.3 C 2.94 g/m*3 -4.3 C 0 km/h
3 16-12-2010 00:31:04 -4.3 C 2.94 g/m*3 -4.3 C 0 km/h
4 16-12-2010 00:43:04 -4.8 C 2.83 g/m*3 -4.8 C 0 km/h
5 16-12-2010 00:55:04 -5.2 C 2.75 g/m*3 -5.2 C 0 km/h
6 16-12-2010 01:07:04 -5.1 C 2.81 g/m*3 -5.1 C 0 km/h
7 16-12-2010 01:19:04 -5 C 2.83 g/m*3 -5 C 0 km/h
8 16-12-2010 01:31:04 -4.6 C 2.94 g/m*3 -4.6 C 0 km/h
9 16-12-2010 01:43:04 -4.7 C 2.89 g/m*3 -4.7 C 0 km/h
10 16-12-2010 01:55:04 -4.8 C 2.87 g/m*3 -4.8 C 0 km/h
11 16-12-2010 02:07:04 -4.8 C 2.87 g/m*3 -4.8 C 0 km/h
12 16-12-2010 02:19:04 -4.9 C 2.81 g/m*3 -4.9 C 0 km/h
13 16-12-2010 02:31:04 -5.5 C 2.66 g/m*3 -5.5 C 0 km/h
14 16-12-2010 02:43:04 -5.8 C 2.64 g/m*3 -5.8 C 0 km/h
15 16-12-2010 02:55:04 -5.5 C 2.69 g/m*3 -5.5 C 0 km/h
16 16-12-2010 03:07:04 -5.6 C 2.71 g/m*3 -5.6 C 0 km/h
17 16-12-2010 03:19:04 -5.3 C 2.77 g/m*3 -5.3 C 0 km/h
18 16-12-2010 03:31:04 -5.4 C 2.75 g/m*3 -5.4 C 0 km/h
19 16-12-2010 03:43:04 -5.3 C 2.77 g/m*3 -5.3 C 0 km/h
20 16-12-2010 03:55:04 -5.2 C 2.79 g/m*3 -5.2 C 0 km/h
21 16-12-2010 04:07:05 -5.2 C 2.79 g/m*3 -5.2 C 0 km/h
22 16-12-2010 04:19:05 -5.3 C 2.73 g/m*3 -5.3 C 0 km/h
23 16-12-2010 04:31:05 -5.6 C 2.64 g/m*3 -5.6 C 0 km/h
24 16-12-2010 04:43:05 -5.8 C 2.6 g/m*3 -5.8 C 0 km/h
25 16-12-2010 04:55:05 -6 C 2.53 g/m*3 -6 C 0 km/h
Sensor: Nr:Datum:Temp:Abs-Feuchte:Windchill:Wind:
Aussen-T/F 26 16-12-2010 05:07:05 -6.1 C 2.48 g/m*3 -6.1 C 0 km/h
27 16-12-2010 05:19:05 -6.2 C 2.47 g/m*3 -6.2 C 0 km/h
28 16-12-2010 05:31:05 -6.3 C 2.42 g/m*3 -6.3 C 0 km/h
29 16-12-2010 05:43:05 -6.5 C 2.38 g/m*3 -6.5 C 0 km/h
30 16-12-2010 05:55:05 -6.9 C 2.31 g/m*3 -6.9 C 0 km/h
31 16-12-2010 06:07:05 -7.3 C 2.28 g/m*3 -7.3 C 0 km/h
32 16-12-2010 06:19:05 -7.4 C 2.29 g/m*3 -7.4 C 0 km/h
33 16-12-2010 06:31:05 -7.6 C 2.25 g/m*3 -7.6 C 0 km/h
34 16-12-2010 06:43:05 -7.6 C 2.23 g/m*3 -7.6 C 0 km/h
35 16-12-2010 06:55:05 -7.8 C 2.19 g/m*3 -7.8 C 0 km/h
36 16-12-2010 07:07:05 -8.1 C 2.14 g/m*3 -8.1 C 0 km/h
37 16-12-2010 07:19:05 -7.9 C 2.18 g/m*3 -7.9 C 0 km/h
38 16-12-2010 07:31:05 -8.1 C 2.14 g/m*3 -8.1 C 0 km/h
39 16-12-2010 07:43:05 -8.6 C 2.04 g/m*3 -8.6 C 0 km/h
40 16-12-2010 07:55:02 -8.7 C 2.03 g/m*3 -8.7 C 0 km/h
41 16-12-2010 08:07:01 -8.8 C 2.04 g/m*3 -8.8 C 0 km/h
42 16-12-2010 08:19:01 -8.2 C 2.13 g/m*3 -8.2 C 0 km/h
43 16-12-2010 08:31:02 -7.8 C 2.22 g/m*3 -7.8 C 0 km/h
44 16-12-2010 08:43:02 -7.5 C 2.24 g/m*3 -7.5 C 0 km/h
45 16-12-2010 08:55:02 -7 C 2.3 g/m*3 -7 C 0 km/h
46 16-12-2010 09:07:01 -6.9 C 2.28 g/m*3 -6.9 C 0 km/h
47 16-12-2010 09:19:01 -6.8 C 2.27 g/m*3 -6.8 C 0 km/h
48 16-12-2010 09:31:01 -6.8 C 2.21 g/m*3 -6.8 C 0 km/h
49 16-12-2010 09:43:01 -6.6 C 2.24 g/m*3 -6.6 C 0 km/h
50 16-12-2010 09:55:02 -5.9 C 2.3 g/m*3 -5.9 C 0 km/h
Sensor: Nr:Datum:Temp:Abs-Feuchte:Windchill:Wind:
Aussen-T/F 51 16-12-2010 10:07:01 -5.2 C 2.38 g/m*3 -5.2 C 0 km/h
52 16-12-2010 10:19:01 -5.2 C 2.38 g/m*3 -5.2 C 0 km/h
53 16-12-2010 10:31:01 -5 C 2.45 g/m*3 -5 C 0 km/h
54 16-12-2010 10:43:01 -4.7 C 2.51 g/m*3 -4.7 C 0 km/h
55 16-12-2010 10:55:02 -4.1 C 2.62 g/m*3 -4.1 C 0 km/h
56 16-12-2010 11:07:02 -3.7 C 2.65 g/m*3 -3.7 C 0 km/h
57 16-12-2010 11:19:02 -3.5 C 2.65 g/m*3 -3.5 C 0 km/h
58 16-12-2010 11:31:02 -3.3 C 2.69 g/m*3 -3.3 C 0 km/h
59 16-12-2010 11:43:02 -3.3 C 2.65 g/m*3 -3.3 C 0 km/h
60 16-12-2010 11:55:02 -3.3 C 2.61 g/m*3 -3.3 C 0 km/h
61 16-12-2010 12:07:02 -3.1 C 2.69 g/m*3 -3.1 C 0 km/h
62 16-12-2010 12:19:02 -3.1 C 2.73 g/m*3 -3.1 C 0 km/h
63 16-12-2010 12:31:01 -3 C 2.75 g/m*3 -3 C 0 km/h
64 16-12-2010 12:43:01 -2.6 C 2.87 g/m*3 -2.6 C 0 km/h
65 16-12-2010 12:55:02 -2.4 C 2.95 g/m*3 -2.4 C 0 km/h
66 16-12-2010 13:07:02 -2.2 C 2.95 g/m*3 -2.2 C 0 km/h
67 16-12-2010 13:19:02 -2.2 C 2.95 g/m*3 -2.2 C 0 km/h
68 16-12-2010 13:31:02 -2.1 C 3.01 g/m*3 -2.1 C 0 km/h
69 16-12-2010 13:43:02 -2.1 C 3.01 g/m*3 -2.1 C 0 km/h
70 16-12-2010 13:55:02 -2 C 3.03 g/m*3 -2 C 0 km/h
71 16-12-2010 14:07:02 -1.9 C 3.1 g/m*3 -1.9 C 0 km/h
72 16-12-2010 14:19:01 -1.9 C 3.14 g/m*3 -1.9 C 0 km/h
73 16-12-2010 14:31:02 -1.8 C 3.21 g/m*3 -1.8 C 0 km/h
74 16-12-2010 14:43:02 -1.6 C 3.25 g/m*3 -1.6 C 0 km/h
75 16-12-2010 14:55:02 -1.4 C 3.3 g/m*3 -1.4 C 0 km/h
Sensor: Nr:Datum:Temp:Abs-Feuchte:Windchill:Wind:
Aussen-T/F 76 16-12-2010 15:07:02 -1.5 C 3.32 g/m*3 -1.5 C 0 km/h
77 16-12-2010 15:19:01 -1.5 C 3.45 g/m*3 -1.5 C 0 km/h
78 16-12-2010 15:31:02 -1.5 C 3.49 g/m*3 -1.5 C 0 km/h
79 16-12-2010 15:43:02 -1.2 C 3.52 g/m*3 -1.2 C 0 km/h
80 16-12-2010 15:55:02 -1.3 C 3.45 g/m*3 -1.3 C 0 km/h
81 16-12-2010 16:07:02 -1.4 C 3.43 g/m*3 -1.4 C 0 km/h
82 16-12-2010 16:19:02 -1.5 C 3.41 g/m*3 -1.5 C 0 km/h
83 16-12-2010 16:31:02 -1.4 C 3.39 g/m*3 -1.4 C 0 km/h
84 16-12-2010 16:43:02 -1.1 C 3.46 g/m*3 -1.1 C 0 km/h
85 16-12-2010 16:55:01 -1.1 C 3.46 g/m*3 -1.1 C 0 km/h
86 16-12-2010 17:07:02 -1.4 C 3.43 g/m*3 -1.4 C 0 km/h
87 16-12-2010 17:19:02 -1.4 C 3.43 g/m*3 -1.4 C 0 km/h
88 16-12-2010 17:31:02 -1.2 C 3.48 g/m*3 -1.2 C 0 km/h
89 16-12-2010 17:43:02 -1.2 C 3.48 g/m*3 -1.2 C 0 km/h
90 16-12-2010 17:55:02 -1.1 C 3.55 g/m*3 -1.1 C 0 km/h
91 16-12-2010 18:07:01 -0.9 C 3.6 g/m*3 -0.9 C 0 km/h
92 16-12-2010 18:19:02 -0.7 C 3.65 g/m*3 -0.7 C 0 km/h
93 16-12-2010 18:31:02 -0.6 C 3.63 g/m*3 -0.6 C 0 km/h
94 16-12-2010 18:43:02 -0.6 C 3.58 g/m*3 -0.6 C 0 km/h
95 16-12-2010 18:55:01 -0.7 C 3.6 g/m*3 -0.7 C 0 km/h
96 16-12-2010 19:07:01 -0.4 C 3.68 g/m*3 -0.4 C 0 km/h
97 16-12-2010 19:19:01 -0.5 C 3.6 g/m*3 -0.5 C 0 km/h
98 16-12-2010 19:31:02 -0.2 C 3.73 g/m*3 -0.2 C 0 km/h
99 16-12-2010 19:43:02 -0.3 C 3.65 g/m*3 -0.3 C 0 km/h
100 16-12-2010 19:55:02 0 C 3.68 g/m*3 0 C 0 km/h
Sensor: Nr:Datum:Temp:Abs-Feuchte:Windchill:Wind:
Aussen-T/F 101 16-12-2010 20:07:02 0 C 3.68 g/m*3 0 C 0 km/h
102 16-12-2010 20:19:01 0 C 3.68 g/m*3 0 C 0 km/h
103 16-12-2010 20:31:02 0 C 3.68 g/m*3 0 C 0 km/h
104 16-12-2010 20:43:02 0 C 3.68 g/m*3 0 C 0 km/h
105 16-12-2010 20:55:02 0.1 C 3.71 g/m*3 0.1 C 0 km/h
106 16-12-2010 21:08:03 0 C 3.73 g/m*3 0 C 0 km/h
107 16-12-2010 21:20:03 -0.2 C 3.78 g/m*3 -0.2 C 0 km/h
108 16-12-2010 21:32:03 -0.2 C 3.78 g/m*3 -0.2 C 0 km/h
109 16-12-2010 21:44:03 -0.1 C 3.85 g/m*3 -0.1 C 0 km/h
110 16-12-2010 21:56:03 -0.1 C 3.8 g/m*3 -0.1 C 0 km/h
111 16-12-2010 22:08:03 -0.1 C 3.85 g/m*3 -0.1 C 0 km/h
112 16-12-2010 22:20:03 -0.2 C 3.87 g/m*3 -0.2 C 0 km/h
113 16-12-2010 22:32:03 -0.3 C 3.89 g/m*3 -0.3 C 0 km/h
114 16-12-2010 22:44:03 -0.5 C 3.88 g/m*3 -0.5 C 0 km/h
115 16-12-2010 22:56:03 -0.6 C 3.9 g/m*3 -0.6 C 0 km/h
116 16-12-2010 23:08:03 -0.5 C 3.93 g/m*3 -0.5 C 0 km/h
117 16-12-2010 23:20:03 -0.4 C 3.86 g/m*3 -0.4 C 0 km/h
118 16-12-2010 23:32:03 -0.5 C 3.79 g/m*3 -0.5 C 0 km/h
119 16-12-2010 23:44:03 -0.4 C 3.82 g/m*3 -0.4 C 0 km/h
120 16-12-2010 23:56:03 -0.5 C 3.79 g/m*3 -0.5 C 0 km/h
121 17-12-2010 00:08:03 -0.5 C 3.79 g/m*3 -0.5 C 0 km/h
122 17-12-2010 00:20:03 -0.3 C 3.84 g/m*3 -0.3 C 0 km/h
123 17-12-2010 00:32:03 -0.3 C 3.84 g/m*3 -0.3 C 0 km/h
124 17-12-2010 00:44:03 -0.1 C 3.9 g/m*3 -0.1 C 0 km/h
125 17-12-2010 00:56:04 -0.2 C 3.87 g/m*3 -0.2 C 0 km/h
Sensor: Nr:Datum:Temp:Abs-Feuchte:Windchill:Wind:
Aussen-T/F 126 17-12-2010 01:08:04 -0.2 C 3.87 g/m*3 -0.2 C 0 km/h
127 17-12-2010 01:20:04 -0.3 C 3.89 g/m*3 -0.3 C 0 km/h
128 17-12-2010 01:32:04 -0.4 C 3.86 g/m*3 -0.4 C 0 km/h
129 17-12-2010 01:44:04 -0.4 C 3.91 g/m*3 -0.4 C 0 km/h
130 17-12-2010 01:56:04 -0.4 C 3.86 g/m*3 -0.4 C 0 km/h
131 17-12-2010 02:08:04 -0.5 C 3.79 g/m*3 -0.5 C 0 km/h
132 17-12-2010 02:20:04 -0.5 C 3.7 g/m*3 -0.5 C 0 km/h
133 17-12-2010 02:32:04 -0.6 C 3.58 g/m*3 -0.6 C 0 km/h
134 17-12-2010 02:44:04 -0.6 C 3.53 g/m*3 -0.6 C 0 km/h
135 17-12-2010 02:56:04 -0.7 C 3.51 g/m*3 -0.7 C 0 km/h
136 17-12-2010 03:08:04 -1.1 C 3.37 g/m*3 -1.1 C 0 km/h
137 17-12-2010 03:20:04 -1.3 C 3.36 g/m*3 -1.3 C 0 km/h
138 17-12-2010 03:32:04 -1.2 C 3.39 g/m*3 -1.2 C 0 km/h
139 17-12-2010 03:44:04 -1.2 C 3.34 g/m*3 -1.2 C 0 km/h
140 17-12-2010 03:56:04 -1.2 C 3.34 g/m*3 -1.2 C 0 km/h
141 17-12-2010 04:08:04 -1.1 C 3.23 g/m*3 -1.1 C 0 km/h
142 17-12-2010 04:20:04 -1.2 C 3.12 g/m*3 -1.2 C 0 km/h
143 17-12-2010 04:32:04 -1.3 C 3.14 g/m*3 -1.3 C 0 km/h
144 17-12-2010 04:44:04 -1.3 C 3.14 g/m*3 -1.3 C 0 km/h
145 17-12-2010 04:56:04 -1.5 C 3.14 g/m*3 -1.5 C 0 km/h
146 17-12-2010 05:08:05 -1.3 C 3.28 g/m*3 -1.3 C 0 km/h
147 17-12-2010 05:20:05 -1.5 C 3.27 g/m*3 -1.5 C 0 km/h
148 17-12-2010 05:32:05 -1.7 C 3.27 g/m*3 -1.7 C 0 km/h
149 17-12-2010 05:44:05 -1.8 C 3.25 g/m*3 -1.8 C 0 km/h
150 17-12-2010 05:56:05 -1.8 C 3.21 g/m*3 -1.8 C 0 km/h
Sensor: Nr:Datum:Temp:Abs-Feuchte:Windchill:Wind:
Aussen-T/F 151 17-12-2010 06:08:05 -1.9 C 3.14 g/m*3 -1.9 C 0 km/h
152 17-12-2010 06:20:05 -2.2 C 3.08 g/m*3 -2.2 C 0 km/h
153 17-12-2010 06:32:05 -2.3 C 3.01 g/m*3 -2.3 C 0 km/h
154 17-12-2010 06:44:05 -2.6 C 2.83 g/m*3 -2.6 C 0 km/h
155 17-12-2010 06:56:05 -2.2 C 2.78 g/m*3 -2.2 C 0 km/h
156 17-12-2010 07:08:05 -2.2 C 2.62 g/m*3 -2.2 C 0 km/h
157 17-12-2010 07:20:04 -2.1 C 2.64 g/m*3 -2.1 C 0 km/h
158 17-12-2010 07:32:03 -2.3 C 2.64 g/m*3 -2.3 C 0 km/h
159 17-12-2010 07:44:03 -2.6 C 2.63 g/m*3 -2.6 C 0 km/h
160 17-12-2010 07:56:02 -2.2 C 2.74 g/m*3 -2.2 C 0 km/h
161 17-12-2010 08:08:02 -2.4 C 2.83 g/m*3 -2.4 C 0 km/h
162 17-12-2010 08:20:02 -2.4 C 2.99 g/m*3 -2.4 C 0 km/h
163 17-12-2010 08:32:02 -2.1 C 3.1 g/m*3 -2.1 C 0 km/h
164 17-12-2010 08:44:02 -2.1 C 3.06 g/m*3 -2.1 C 0 km/h
165 17-12-2010 08:56:02 -2.1 C 3.01 g/m*3 -2.1 C 0 km/h
166 17-12-2010 09:08:01 -2 C 2.95 g/m*3 -2 C 0 km/h
167 17-12-2010 09:20:02 -2 C 2.95 g/m*3 -2 C 0 km/h
168 17-12-2010 09:32:02 -1.9 C 3.01 g/m*3 -1.9 C 0 km/h
169 17-12-2010 09:44:02 -1.8 C 3.08 g/m*3 -1.8 C 0 km/h
170 17-12-2010 09:56:02 -1.9 C 3.06 g/m*3 -1.9 C 0 km/h
171 17-12-2010 10:08:02 -1.9 C 3.01 g/m*3 -1.9 C 0 km/h
172 17-12-2010 10:20:02 -1.8 C 2.95 g/m*3 -1.8 C 0 km/h
173 17-12-2010 10:32:02 -1.7 C 2.88 g/m*3 -1.7 C 0 km/h
174 17-12-2010 10:44:02 -1.8 C 2.86 g/m*3 -1.8 C 0 km/h
175 17-12-2010 10:56:01 -1.1 C 3.05 g/m*3 -1.1 C 0 km/h
Sensor: Nr:Datum:Temp:Abs-Feuchte:Windchill:Wind:
Aussen-T/F 176 17-12-2010 11:08:01 -1.5 C 2.92 g/m*3 -1.5 C 0 km/h
177 17-12-2010 11:20:01 -1.4 C 2.86 g/m*3 -1.4 C 0 km/h
178 17-12-2010 11:32:01 -1.1 C 2.78 g/m*3 -1.1 C 0 km/h
179 17-12-2010 11:44:01 -1.1 C 2.56 g/m*3 -1.1 C 0 km/h
180 17-12-2010 11:56:01 -0.9 C 2.55 g/m*3 -0.9 C 0 km/h
181 17-12-2010 12:08:01 -0.6 C 2.6 g/m*3 -0.6 C 0 km/h
182 17-12-2010 12:20:02 -1.2 C 2.54 g/m*3 -1.2 C 0 km/h
183 17-12-2010 12:32:01 -1.4 C 2.51 g/m*3 -1.4 C 0 km/h
184 17-12-2010 12:44:01 -1.2 C 2.54 g/m*3 -1.2 C 0 km/h
185 17-12-2010 12:56:03 -1.3 C 2.43 g/m*3 -1.3 C 0 km/h
186 17-12-2010 13:08:02 -1.9 C 2.38 g/m*3 -1.9 C 0 km/h
187 17-12-2010 13:20:02 -1 C 2.44 g/m*3 -1 C 0 km/h
188 17-12-2010 13:32:02 -1 C 2.44 g/m*3 -1 C 0 km/h
189 17-12-2010 13:44:02 -1 C 2.44 g/m*3 -1 C 0 km/h
190 17-12-2010 13:56:02 -1.2 C 2.45 g/m*3 -1.2 C 0 km/h
191 17-12-2010 14:08:01 -0.6 C 2.56 g/m*3 -0.6 C 0 km/h
192 17-12-2010 14:20:02 -1.1 C 2.51 g/m*3 -1.1 C 0 km/h
193 17-12-2010 14:32:02 -1.6 C 2.6 g/m*3 -1.6 C 0 km/h
194 17-12-2010 14:44:02 -1.8 C 2.74 g/m*3 -1.8 C 0 km/h
195 17-12-2010 14:56:02 -1.9 C 2.84 g/m*3 -1.9 C 0 km/h
196 17-12-2010 15:08:03 -1.9 C 2.93 g/m*3 -1.9 C 0 km/h
197 17-12-2010 15:20:02 -1.8 C 2.99 g/m*3 -1.8 C 0 km/h
198 17-12-2010 15:32:02 -1.7 C 2.97 g/m*3 -1.7 C 0 km/h
199 17-12-2010 15:44:03 -1.9 C 2.97 g/m*3 -1.9 C 0 km/h
200 17-12-2010 15:56:01 -1.8 C 3.04 g/m*3 -1.8 C 0 km/h
Sensor: Nr:Datum:Temp:Abs-Feuchte:Windchill:Wind:
Aussen-T/F 201 17-12-2010 16:08:02 -1.8 C 3.04 g/m*3 -1.8 C 0 km/h
202 17-12-2010 16:20:01 -1.9 C 3.01 g/m*3 -1.9 C 0 km/h
203 17-12-2010 16:32:01 -2.1 C 3.01 g/m*3 -2.1 C 0 km/h
204 17-12-2010 16:44:01 -2 C 3.03 g/m*3 -2 C 0 km/h
205 17-12-2010 16:56:01 -2.6 C 2.91 g/m*3 -2.6 C 0 km/h
206 17-12-2010 17:08:01 -3.4 C 2.83 g/m*3 -3.4 C 0 km/h
207 17-12-2010 17:20:01 -4.3 C 2.72 g/m*3 -4.3 C 0 km/h
208 17-12-2010 17:32:01 -4.2 C 2.81 g/m*3 -4.2 C 0 km/h
209 17-12-2010 17:44:01 -4.1 C 2.83 g/m*3 -4.1 C 0 km/h
210 17-12-2010 17:56:01 -4.3 C 2.79 g/m*3 -4.3 C 0 km/h
211 17-12-2010 18:08:02 -4.6 C 2.77 g/m*3 -4.6 C 0 km/h
212 17-12-2010 18:20:01 -4.8 C 2.76 g/m*3 -4.8 C 0 km/h
213 17-12-2010 18:32:01 -5.6 C 2.61 g/m*3 -5.6 C 0 km/h
214 17-12-2010 18:44:01 -5.8 C 2.6 g/m*3 -5.8 C 0 km/h
215 17-12-2010 18:56:01 -5.3 C 2.73 g/m*3 -5.3 C 0 km/h
216 17-12-2010 19:08:02 -6.2 C 2.53 g/m*3 -6.2 C 0 km/h
217 17-12-2010 19:20:02 -6.5 C 2.5 g/m*3 -6.5 C 0 km/h
218 17-12-2010 19:32:01 -6.1 C 2.61 g/m*3 -6.1 C 0 km/h
219 17-12-2010 19:44:01 -6.7 C 2.47 g/m*3 -6.7 C 0 km/h
220 17-12-2010 19:56:01 -6.9 C 2.43 g/m*3 -6.9 C 0 km/h
221 17-12-2010 20:08:02 -6.6 C 2.52 g/m*3 -6.6 C 0 km/h
222 17-12-2010 20:20:01 -6.6 C 2.52 g/m*3 -6.6 C 0 km/h
223 17-12-2010 20:32:02 -6.6 C 2.52 g/m*3 -6.6 C 0 km/h
224 17-12-2010 20:44:02 -6.5 C 2.53 g/m*3 -6.5 C 0 km/h
225 17-12-2010 20:56:02 -6.6 C 2.52 g/m*3 -6.6 C 0 km/h
Sensor: Nr:Datum:Temp:Abs-Feuchte:Windchill:Wind:
Aussen-T/F 226 17-12-2010 21:08:02 -6.8 C 2.48 g/m*3 -6.8 C 0 km/h
227 17-12-2010 21:20:02 -6.8 C 2.48 g/m*3 -6.8 C 0 km/h
228 17-12-2010 21:32:02 -7 C 2.41 g/m*3 -7 C 0 km/h
229 17-12-2010 21:44:02 -7.1 C 2.4 g/m*3 -7.1 C 0 km/h
230 17-12-2010 21:57:02 -7 C 2.41 g/m*3 -7 C 0 km/h
231 17-12-2010 22:09:02 -7.3 C 2.36 g/m*3 -7.3 C 0 km/h
232 17-12-2010 22:21:02 -7.4 C 2.34 g/m*3 -7.4 C 0 km/h
233 17-12-2010 22:33:02 -7.2 C 2.38 g/m*3 -7.2 C 0 km/h
234 17-12-2010 22:45:02 -6.6 C 2.52 g/m*3 -6.6 C 0 km/h
235 17-12-2010 22:57:02 -6.1 C 2.61 g/m*3 -6.1 C 0 km/h
236 17-12-2010 23:09:02 -6.2 C 2.59 g/m*3 -6.2 C 0 km/h
237 17-12-2010 23:21:02 -6 C 2.63 g/m*3 -6 C 0 km/h
238 17-12-2010 23:33:02 -6 C 2.63 g/m*3 -6 C 0 km/h
239 17-12-2010 23:45:02 -5.8 C 2.7 g/m*3 -5.8 C 0 km/h
240 17-12-2010 23:57:03 -5.5 C 2.76 g/m*3 -5.5 C 0 km/h
241 18-12-2010 00:09:03 -5.2 C 2.82 g/m*3 -5.2 C 0 km/h
242 18-12-2010 00:21:03 -4.9 C 2.92 g/m*3 -4.9 C 0 km/h
243 18-12-2010 00:33:03 -4.7 C 2.96 g/m*3 -4.7 C 0 km/h
244 18-12-2010 00:45:03 -4.5 C 3 g/m*3 -4.5 C 0 km/h
245 18-12-2010 00:57:03 -4.4 C 2.99 g/m*3 -4.4 C 0 km/h
246 18-12-2010 01:09:03 -4.3 C 2.97 g/m*3 -4.3 C 0 km/h
247 18-12-2010 01:21:03 -4.3 C 2.94 g/m*3 -4.3 C 0 km/h
248 18-12-2010 01:33:03 -4.2 C 2.96 g/m*3 -4.2 C 0 km/h
249 18-12-2010 01:45:03 -4.6 C 2.84 g/m*3 -4.6 C 0 km/h
250 18-12-2010 01:57:03 -4.8 C 2.8 g/m*3 -4.8 C 0 km/h
Sensor: Nr:Datum:Temp:Abs-Feuchte:Windchill:Wind:
Aussen-T/F 251 18-12-2010 02:09:03 -5.2 C 2.68 g/m*3 -5.2 C 0 km/h
252 18-12-2010 02:21:03 -5.9 C 2.55 g/m*3 -5.9 C 0 km/h
253 18-12-2010 02:33:03 -5.4 C 2.68 g/m*3 -5.4 C 0 km/h
254 18-12-2010 02:45:03 -5.3 C 2.73 g/m*3 -5.3 C 0 km/h
255 18-12-2010 02:57:03 -4.6 C 2.84 g/m*3 -4.6 C 0 km/h
256 18-12-2010 03:09:03 -4.5 C 2.82 g/m*3 -4.5 C 0 km/h
257 18-12-2010 03:21:03 -4.4 C 2.84 g/m*3 -4.4 C 0 km/h
258 18-12-2010 03:33:03 -4.3 C 2.86 g/m*3 -4.3 C 0 km/h
259 18-12-2010 03:45:03 -4.3 C 2.9 g/m*3 -4.3 C 0 km/h
260 18-12-2010 03:57:03 -4.3 C 2.94 g/m*3 -4.3 C 0 km/h
261 18-12-2010 04:09:03 -4.4 C 2.92 g/m*3 -4.4 C 0 km/h
262 18-12-2010 04:21:04 -4.4 C 2.92 g/m*3 -4.4 C 0 km/h
263 18-12-2010 04:33:04 -4.3 C 2.97 g/m*3 -4.3 C 0 km/h
264 18-12-2010 04:45:04 -4.4 C 2.95 g/m*3 -4.4 C 0 km/h
265 18-12-2010 04:57:04 -4.3 C 2.97 g/m*3 -4.3 C 0 km/h
266 18-12-2010 05:09:04 -4.4 C 2.99 g/m*3 -4.4 C 0 km/h
267 18-12-2010 05:21:04 -4.4 C 2.99 g/m*3 -4.4 C 0 km/h
268 18-12-2010 05:33:04 -4.5 C 2.96 g/m*3 -4.5 C 0 km/h
269 18-12-2010 05:45:04 -4.4 C 2.99 g/m*3 -4.4 C 0 km/h
270 18-12-2010 05:57:04 -4.5 C 2.96 g/m*3 -4.5 C 0 km/h
271 18-12-2010 06:09:04 -4.4 C 2.99 g/m*3 -4.4 C 0 km/h
272 18-12-2010 06:21:04 -4.4 C 2.99 g/m*3 -4.4 C 0 km/h
273 18-12-2010 06:33:04 -4.4 C 2.99 g/m*3 -4.4 C 0 km/h
274 18-12-2010 06:45:04 -4.3 C 3.01 g/m*3 -4.3 C 0 km/h
275 18-12-2010 06:57:04 -4.2 C 3.07 g/m*3 -4.2 C 0 km/h
Sensor: Nr:Datum:Temp:Abs-Feuchte:Windchill:Wind:
Aussen-T/F 276 18-12-2010 07:09:04 -4.2 C 3.07 g/m*3 -4.2 C 0 km/h
277 18-12-2010 07:21:04 -4.8 C 2.9 g/m*3 -4.8 C 0 km/h
278 18-12-2010 07:33:04 -5.4 C 2.78 g/m*3 -5.4 C 0 km/h
279 18-12-2010 07:45:04 -6.2 C 2.62 g/m*3 -6.2 C 0 km/h
280 18-12-2010 07:57:04 -5.7 C 2.72 g/m*3 -5.7 C 0 km/h
281 18-12-2010 08:09:04 -5.3 C 2.83 g/m*3 -5.3 C 0 km/h
282 18-12-2010 08:21:04 -5.3 C 2.83 g/m*3 -5.3 C 0 km/h
283 18-12-2010 08:33:04 -5.5 C 2.76 g/m*3 -5.5 C 0 km/h
284 18-12-2010 08:45:05 -5.4 C 2.78 g/m*3 -5.4 C 0 km/h
285 18-12-2010 08:57:05 -5.2 C 2.79 g/m*3 -5.2 C 0 km/h
286 18-12-2010 09:09:02 -5.2 C 2.75 g/m*3 -5.2 C 0 km/h
287 18-12-2010 09:21:02 -5.1 C 2.74 g/m*3 -5.1 C 0 km/h
288 18-12-2010 09:33:02 -4.9 C 2.71 g/m*3 -4.9 C 0 km/h
289 18-12-2010 09:45:02 -4.6 C 2.73 g/m*3 -4.6 C 0 km/h
290 18-12-2010 09:57:02 -4.4 C 2.7 g/m*3 -4.4 C 0 km/h
291 18-12-2010 10:09:02 -4.2 C 2.67 g/m*3 -4.2 C 0 km/h
292 18-12-2010 10:21:02 -4.1 C 2.65 g/m*3 -4.1 C 0 km/h
293 18-12-2010 10:33:02 -3.8 C 2.71 g/m*3 -3.8 C 0 km/h
294 18-12-2010 10:45:02 -3.5 C 2.73 g/m*3 -3.5 C 0 km/h
295 18-12-2010 10:57:02 -3.5 C 2.65 g/m*3 -3.5 C 0 km/h
296 18-12-2010 11:09:03 -3.5 C 2.62 g/m*3 -3.5 C 0 km/h
297 18-12-2010 11:21:02 -3.9 C 2.62 g/m*3 -3.9 C 0 km/h
298 18-12-2010 11:33:02 -3.5 C 2.69 g/m*3 -3.5 C 0 km/h
299 18-12-2010 11:45:01 -3.2 C 2.59 g/m*3 -3.2 C 0 km/h
300 18-12-2010 11:57:01 -3.3 C 2.42 g/m*3 -3.3 C 0 km/h
Sensor: Nr:Datum:Temp:Abs-Feuchte:Windchill:Wind:
Aussen-T/F 301 18-12-2010 12:09:02 -3.6 C 2.41 g/m*3 -3.6 C 0 km/h
302 18-12-2010 12:21:01 -3.8 C 2.49 g/m*3 -3.8 C 0 km/h
303 18-12-2010 12:33:01 -3.3 C 2.5 g/m*3 -3.3 C 0 km/h
304 18-12-2010 12:45:01 -2.9 C 2.49 g/m*3 -2.9 C 0 km/h
305 18-12-2010 12:57:01 -2.8 C 2.43 g/m*3 -2.8 C 0 km/h
306 18-12-2010 13:09:01 -3 C 2.36 g/m*3 -3 C 0 km/h
307 18-12-2010 13:21:02 -3.2 C 2.32 g/m*3 -3.2 C 0 km/h
308 18-12-2010 13:33:01 -3 C 2.36 g/m*3 -3 C 0 km/h
309 18-12-2010 13:45:03 -2.8 C 2.39 g/m*3 -2.8 C 0 km/h
310 18-12-2010 13:57:03 -2.8 C 2.39 g/m*3 -2.8 C 0 km/h
311 18-12-2010 14:09:02 -3.3 C 2.35 g/m*3 -3.3 C 0 km/h
312 18-12-2010 14:21:02 -3.2 C 2.32 g/m*3 -3.2 C 0 km/h
313 18-12-2010 14:33:02 -3.7 C 2.28 g/m*3 -3.7 C 0 km/h
314 18-12-2010 14:45:02 -4.2 C 2.27 g/m*3 -4.2 C 0 km/h
315 18-12-2010 14:57:02 -4.8 C 2.25 g/m*3 -4.8 C 0 km/h
316 18-12-2010 15:09:01 -4.7 C 2.3 g/m*3 -4.7 C 0 km/h
317 18-12-2010 15:21:02 -5.1 C 2.3 g/m*3 -5.1 C 0 km/h
318 18-12-2010 15:33:02 -5.6 C 2.28 g/m*3 -5.6 C 0 km/h
319 18-12-2010 15:45:02 -5.9 C 2.33 g/m*3 -5.9 C 0 km/h
320 18-12-2010 15:57:02 -6.1 C 2.33 g/m*3 -6.1 C 0 km/h
321 18-12-2010 16:09:03 -6.6 C 2.3 g/m*3 -6.6 C 0 km/h
322 18-12-2010 16:21:02 -6.9 C 2.25 g/m*3 -6.9 C 0 km/h
323 18-12-2010 16:33:02 -7 C 2.3 g/m*3 -7 C 0 km/h
324 18-12-2010 16:45:01 -7.5 C 2.24 g/m*3 -7.5 C 0 km/h
325 18-12-2010 16:57:01 -7.3 C 2.28 g/m*3 -7.3 C 0 km/h
Sensor: Nr:Datum:Temp:Abs-Feuchte:Windchill:Wind:
Aussen-T/F 326 18-12-2010 17:09:02 -7.6 C 2.25 g/m*3 -7.6 C 0 km/h
327 18-12-2010 17:21:01 -7.7 C 2.24 g/m*3 -7.7 C 0 km/h
328 18-12-2010 17:33:01 -7.9 C 2.23 g/m*3 -7.9 C 0 km/h
329 18-12-2010 17:45:01 -7.3 C 2.36 g/m*3 -7.3 C 0 km/h
330 18-12-2010 17:57:01 -7.3 C 2.36 g/m*3 -7.3 C 0 km/h
331 18-12-2010 18:09:01 -6.7 C 2.5 g/m*3 -6.7 C 0 km/h
332 18-12-2010 18:21:02 -6.8 C 2.48 g/m*3 -6.8 C 0 km/h
333 18-12-2010 18:33:01 -6.9 C 2.43 g/m*3 -6.9 C 0 km/h
334 18-12-2010 18:45:02 -6.8 C 2.45 g/m*3 -6.8 C 0 km/h
335 18-12-2010 18:57:02 -6.5 C 2.53 g/m*3 -6.5 C 0 km/h
336 18-12-2010 19:09:01 -5.8 C 2.7 g/m*3 -5.8 C 0 km/h
337 18-12-2010 19:21:02 -5.4 C 2.78 g/m*3 -5.4 C 0 km/h
338 18-12-2010 19:33:01 -5.4 C 2.78 g/m*3 -5.4 C 0 km/h
339 18-12-2010 19:45:02 -5.2 C 2.82 g/m*3 -5.2 C 0 km/h
340 18-12-2010 19:57:02 -4.9 C 2.88 g/m*3 -4.9 C 0 km/h
341 18-12-2010 20:09:02 -4.6 C 2.94 g/m*3 -4.6 C 0 km/h
342 18-12-2010 20:21:02 -4.4 C 2.99 g/m*3 -4.4 C 0 km/h
343 18-12-2010 20:33:02 -4.2 C 2.99 g/m*3 -4.2 C 0 km/h
344 18-12-2010 20:45:01 -4.4 C 2.95 g/m*3 -4.4 C 0 km/h
345 18-12-2010 20:57:01 -4.2 C 2.99 g/m*3 -4.2 C 0 km/h
346 18-12-2010 21:09:02 -4.1 C 3.01 g/m*3 -4.1 C 0 km/h
347 18-12-2010 21:21:01 -4.1 C 3.01 g/m*3 -4.1 C 0 km/h
348 18-12-2010 21:33:02 -3.9 C 3.06 g/m*3 -3.9 C 0 km/h
349 18-12-2010 21:46:03 -4 C 3.04 g/m*3 -4 C 0 km/h
350 18-12-2010 21:58:03 -3.8 C 3.12 g/m*3 -3.8 C 0 km/h
Sensor: Nr:Datum:Temp:Abs-Feuchte:Windchill:Wind:
Aussen-T/F 351 18-12-2010 22:10:03 -3.5 C 3.18 g/m*3 -3.5 C 0 km/h
352 18-12-2010 22:22:03 -3.5 C 3.18 g/m*3 -3.5 C 0 km/h
353 18-12-2010 22:34:03 -3.4 C 3.21 g/m*3 -3.4 C 0 km/h
354 18-12-2010 22:46:03 -3.4 C 3.21 g/m*3 -3.4 C 0 km/h
355 18-12-2010 22:58:03 -3.3 C 3.23 g/m*3 -3.3 C 0 km/h
356 18-12-2010 23:10:03 -3.2 C 3.25 g/m*3 -3.2 C 0 km/h
357 18-12-2010 23:22:03 -3.1 C 3.28 g/m*3 -3.1 C 0 km/h
358 18-12-2010 23:34:03 -3.1 C 3.28 g/m*3 -3.1 C 0 km/h
359 18-12-2010 23:46:03 -3.1 C 3.28 g/m*3 -3.1 C 0 km/h
360 18-12-2010 23:58:03 -2.9 C 3.32 g/m*3 -2.9 C 0 km/h
361 19-12-2010 00:10:03 -2.7 C 3.37 g/m*3 -2.7 C 0 km/h
362 19-12-2010 00:22:03 -2.7 C 3.37 g/m*3 -2.7 C 0 km/h
363 19-12-2010 00:34:04 -2.6 C 3.39 g/m*3 -2.6 C 0 km/h
364 19-12-2010 00:46:04 -2.4 C 3.44 g/m*3 -2.4 C 0 km/h
365 19-12-2010 00:58:04 -2.4 C 3.48 g/m*3 -2.4 C 0 km/h
366 19-12-2010 01:10:04 -2.4 C 3.52 g/m*3 -2.4 C 0 km/h
367 19-12-2010 01:22:04 -2.4 C 3.52 g/m*3 -2.4 C 0 km/h
368 19-12-2010 01:34:04 -2.4 C 3.52 g/m*3 -2.4 C 0 km/h
369 19-12-2010 01:46:04 -2.5 C 3.54 g/m*3 -2.5 C 0 km/h
370 19-12-2010 01:58:04 -2.5 C 3.54 g/m*3 -2.5 C 0 km/h
371 19-12-2010 02:10:04 -2.4 C 3.57 g/m*3 -2.4 C 0 km/h
372 19-12-2010 02:22:04 -2.5 C 3.54 g/m*3 -2.5 C 0 km/h
373 19-12-2010 02:34:04 -2.5 C 3.54 g/m*3 -2.5 C 0 km/h
374 19-12-2010 02:46:04 -2.5 C 3.54 g/m*3 -2.5 C 0 km/h
375 19-12-2010 02:58:04 -2.6 C 3.52 g/m*3 -2.6 C 0 km/h
Sensor: Nr:Datum:Temp:Abs-Feuchte:Windchill:Wind:
Aussen-T/F 376 19-12-2010 03:10:04 -2.7 C 3.49 g/m*3 -2.7 C 0 km/h
377 19-12-2010 03:22:04 -2.7 C 3.49 g/m*3 -2.7 C 0 km/h
378 19-12-2010 03:34:04 -2.7 C 3.49 g/m*3 -2.7 C 0 km/h
379 19-12-2010 03:46:04 -2.7 C 3.49 g/m*3 -2.7 C 0 km/h
380 19-12-2010 03:58:04 -2.7 C 3.49 g/m*3 -2.7 C 0 km/h
381 19-12-2010 04:10:04 -2.6 C 3.52 g/m*3 -2.6 C 0 km/h
382 19-12-2010 04:22:04 -2.5 C 3.54 g/m*3 -2.5 C 0 km/h
383 19-12-2010 04:34:04 -2.5 C 3.54 g/m*3 -2.5 C 0 km/h
384 19-12-2010 04:46:04 -2.4 C 3.57 g/m*3 -2.4 C 0 km/h
385 19-12-2010 04:58:05 -2.3 C 3.59 g/m*3 -2.3 C 0 km/h
386 19-12-2010 05:10:05 -1.6 C 3.77 g/m*3 -1.6 C 0 km/h
387 19-12-2010 05:22:05 -1.1 C 3.82 g/m*3 -1.1 C 0 km/h
388 19-12-2010 05:34:05 -0.9 C 3.69 g/m*3 -0.9 C 0 km/h
389 19-12-2010 05:46:05 -0.6 C 3.58 g/m*3 -0.6 C 0 km/h
390 19-12-2010 05:58:05 -0.9 C 3.46 g/m*3 -0.9 C 0 km/h
391 19-12-2010 06:10:05 -1.1 C 3.41 g/m*3 -1.1 C 0 km/h
392 19-12-2010 06:22:05 -1.4 C 3.3 g/m*3 -1.4 C 0 km/h
393 19-12-2010 06:34:05 -1.4 C 3.25 g/m*3 -1.4 C 0 km/h
394 19-12-2010 06:46:05 -1.7 C 3.19 g/m*3 -1.7 C 0 km/h
395 19-12-2010 06:58:05 -2.6 C 3.07 g/m*3 -2.6 C 0 km/h
396 19-12-2010 07:10:05 -2.8 C 3.03 g/m*3 -2.8 C 0 km/h
397 19-12-2010 07:22:05 -3.3 C 3.04 g/m*3 -3.3 C 0 km/h
398 19-12-2010 07:34:05 -2.7 C 3.21 g/m*3 -2.7 C 0 km/h
399 19-12-2010 07:46:05 -2 C 3.37 g/m*3 -2 C 0 km/h
400 19-12-2010 07:58:05 -2.1 C 3.31 g/m*3 -2.1 C 0 km/h
Sensor: Nr:Datum:Temp:Abs-Feuchte:Windchill:Wind:
Aussen-T/F 401 19-12-2010 08:10:05 -1.7 C 3.31 g/m*3 -1.7 C 0 km/h
402 19-12-2010 08:22:05 -2.7 C 3.09 g/m*3 -2.7 C 0 km/h
403 19-12-2010 08:34:05 -2.9 C 3.13 g/m*3 -2.9 C 0 km/h
404 19-12-2010 08:46:02 -2.9 C 3.16 g/m*3 -2.9 C 0 km/h
405 19-12-2010 08:58:02 -2.3 C 3.3 g/m*3 -2.3 C 0 km/h
406 19-12-2010 09:10:02 -2.1 C 3.31 g/m*3 -2.1 C 0 km/h
407 19-12-2010 09:22:02 -2.5 C 3.26 g/m*3 -2.5 C 0 km/h
408 19-12-2010 09:34:02 -2.4 C 3.32 g/m*3 -2.4 C 0 km/h
409 19-12-2010 09:46:02 -2 C 3.41 g/m*3 -2 C 0 km/h
410 19-12-2010 09:58:02 -1.2 C 3.57 g/m*3 -1.2 C 0 km/h
411 19-12-2010 10:10:02 -1.1 C 3.5 g/m*3 -1.1 C 0 km/h
412 19-12-2010 10:22:02 -1.1 C 3.41 g/m*3 -1.1 C 0 km/h
413 19-12-2010 10:34:02 -0.8 C 3.44 g/m*3 -0.8 C 0 km/h
414 19-12-2010 10:46:02 -0.9 C 3.37 g/m*3 -0.9 C 0 km/h
415 19-12-2010 10:58:02 -0.8 C 3.35 g/m*3 -0.8 C 0 km/h
416 19-12-2010 11:10:01 -0.7 C 3.37 g/m*3 -0.7 C 0 km/h
417 19-12-2010 11:22:02 -0.6 C 3.44 g/m*3 -0.6 C 0 km/h
418 19-12-2010 11:34:02 -0.4 C 3.58 g/m*3 -0.4 C 0 km/h
419 19-12-2010 11:46:02 -0.2 C 3.68 g/m*3 -0.2 C 0 km/h
420 19-12-2010 11:58:02 0 C 3.73 g/m*3 0 C 0 km/h
421 19-12-2010 12:10:02 0 C 3.59 g/m*3 0 C 0 km/h
422 19-12-2010 12:22:02 0.2 C 3.64 g/m*3 0.2 C 0 km/h
423 19-12-2010 12:34:02 0.6 C 3.69 g/m*3 0.6 C 0 km/h
424 19-12-2010 12:46:01 0.5 C 3.56 g/m*3 0.5 C 0 km/h
425 19-12-2010 12:58:01 0.2 C 3.54 g/m*3 0.2 C 0 km/h
Sensor: Nr:Datum:Temp:Abs-Feuchte:Windchill:Wind:
Aussen-T/F 426 19-12-2010 13:10:02 0.2 C 3.59 g/m*3 0.2 C 0 km/h
427 19-12-2010 13:22:01 0.2 C 3.68 g/m*3 0.2 C 0 km/h
428 19-12-2010 13:34:02 0.2 C 3.73 g/m*3 0.2 C 0 km/h
429 19-12-2010 13:46:01 0.1 C 3.76 g/m*3 0.1 C 0 km/h
430 19-12-2010 13:58:01 0 C 3.78 g/m*3 0 C 0 km/h
431 19-12-2010 14:10:02 -0.2 C 3.82 g/m*3 -0.2 C 0 km/h
432 19-12-2010 14:22:01 -0.2 C 3.92 g/m*3 -0.2 C 0 km/h
433 19-12-2010 14:34:02 -0.2 C 3.97 g/m*3 -0.2 C 0 km/h
434 19-12-2010 14:46:01 -0.1 C 3.99 g/m*3 -0.1 C 0 km/h
435 19-12-2010 14:58:01 -0.2 C 4.01 g/m*3 -0.2 C 0 km/h
436 19-12-2010 15:10:02 -0.4 C 4.01 g/m*3 -0.4 C 0 km/h
437 19-12-2010 15:22:02 -0.4 C 4.05 g/m*3 -0.4 C 0 km/h
438 19-12-2010 15:34:01 -0.4 C 4.1 g/m*3 -0.4 C 0 km/h
439 19-12-2010 15:46:02 -0.4 C 4.1 g/m*3 -0.4 C 0 km/h
440 19-12-2010 15:58:02 -0.4 C 4.15 g/m*3 -0.4 C 0 km/h
441 19-12-2010 16:10:01 -0.4 C 4.19 g/m*3 -0.4 C 0 km/h
442 19-12-2010 16:22:02 -0.3 C 4.22 g/m*3 -0.3 C 0 km/h
443 19-12-2010 16:34:01 -0.3 C 4.22 g/m*3 -0.3 C 0 km/h
444 19-12-2010 16:46:02 -0.2 C 4.25 g/m*3 -0.2 C 0 km/h
445 19-12-2010 16:58:02 -0.3 C 4.27 g/m*3 -0.3 C 0 km/h
446 19-12-2010 17:10:02 -0.2 C 4.3 g/m*3 -0.2 C 0 km/h
447 19-12-2010 17:22:02 -0.2 C 4.3 g/m*3 -0.2 C 0 km/h
448 19-12-2010 17:34:03 -0.2 C 4.35 g/m*3 -0.2 C 0 km/h
449 19-12-2010 17:46:02 -0.2 C 4.35 g/m*3 -0.2 C 0 km/h
450 19-12-2010 17:58:03 -0.2 C 4.35 g/m*3 -0.2 C 0 km/h
Sensor: Nr:Datum:Temp:Abs-Feuchte:Windchill:Wind:
Aussen-T/F 451 19-12-2010 18:10:01 -0.2 C 4.35 g/m*3 -0.2 C 0 km/h
452 19-12-2010 18:22:02 -0.2 C 4.35 g/m*3 -0.2 C 0 km/h
453 19-12-2010 18:34:02 -0.2 C 4.35 g/m*3 -0.2 C 0 km/h
454 19-12-2010 18:46:02 -0.2 C 4.35 g/m*3 -0.2 C 0 km/h
455 19-12-2010 18:58:02 -0.1 C 4.43 g/m*3 -0.1 C 0 km/h
456 19-12-2010 19:10:02 -0.1 C 4.43 g/m*3 -0.1 C 0 km/h
457 19-12-2010 19:22:02 -0.1 C 4.43 g/m*3 -0.1 C 0 km/h
458 19-12-2010 19:34:02 0 C 4.46 g/m*3 0 C 0 km/h
459 19-12-2010 19:46:02 0 C 4.46 g/m*3 0 C 0 km/h
460 19-12-2010 19:58:02 0 C 4.46 g/m*3 0 C 0 km/h
461 19-12-2010 20:10:02 0 C 4.46 g/m*3 0 C 0 km/h
462 19-12-2010 20:22:02 0 C 4.46 g/m*3 0 C 0 km/h
463 19-12-2010 20:34:02 0.1 C 4.49 g/m*3 0.1 C 0 km/h
464 19-12-2010 20:46:02 0.1 C 4.49 g/m*3 0.1 C 0 km/h
465 19-12-2010 20:58:02 0.2 C 4.57 g/m*3 0.2 C 0 km/h
466 19-12-2010 21:10:02 0.3 C 4.6 g/m*3 0.3 C 0 km/h
467 19-12-2010 21:22:03 0.4 C 4.63 g/m*3 0.4 C 0 km/h
468 19-12-2010 21:34:02 1 C 4.78 g/m*3 1 C 0 km/h
469 19-12-2010 21:46:03 1.8 C 5.1 g/m*3 1.8 C 0 km/h
470 19-12-2010 21:58:03 2 C 5.11 g/m*3 2 C 0 km/h
471 19-12-2010 22:10:03 1.9 C 5.08 g/m*3 1.9 C 0 km/h
472 19-12-2010 22:22:02 1.7 C 5.01 g/m*3 1.7 C 0 km/h
473 19-12-2010 22:34:02 1.5 C 4.94 g/m*3 1.5 C 0 km/h
474 19-12-2010 22:46:01 1.6 C 4.92 g/m*3 1.6 C 0 km/h
475 19-12-2010 22:58:01 2.9 C 5.37 g/m*3 2.9 C 0 km/h
Sensor: Nr:Datum:Temp:Abs-Feuchte:Windchill:Wind:
Aussen-T/F 476 19-12-2010 23:10:02 3.6 C 5.45 g/m*3 3.6 C 0 km/h
477 19-12-2010 23:22:01 4.2 C 5.28 g/m*3 4.2 C 0 km/h
478 19-12-2010 23:34:02 4.5 C 5 g/m*3 4.5 C 0 km/h
479 19-12-2010 23:46:01 5.1 C 4.79 g/m*3 5.1 C 0 km/h
480 19-12-2010 23:58:01 4.7 C 4.66 g/m*3 4.7 C 0 km/h
481 20-12-2010 00:10:02 4.3 C 4.61 g/m*3 4.3 C 0 km/h
482 20-12-2010 00:22:01 4.2 C 4.64 g/m*3 4.2 C 0 km/h
483 20-12-2010 00:34:02 4 C 4.64 g/m*3 4 C 0 km/h
484 20-12-2010 00:46:01 4 C 4.64 g/m*3 4 C 0 km/h
485 20-12-2010 00:58:01 3.6 C 4.58 g/m*3 3.6 C 0 km/h
486 20-12-2010 01:10:02 2.9 C 4.67 g/m*3 2.9 C 0 km/h
487 20-12-2010 01:22:02 2.7 C 4.66 g/m*3 2.7 C 0 km/h
488 20-12-2010 01:34:01 1.3 C 4.29 g/m*3 1.3 C 0 km/h
489 20-12-2010 01:46:02 0.7 C 4.27 g/m*3 0.7 C 0 km/h
490 20-12-2010 01:58:02 0.8 C 4.25 g/m*3 0.8 C 0 km/h
491 20-12-2010 02:10:01 0.7 C 3.97 g/m*3 0.7 C 0 km/h
492 20-12-2010 02:22:02 0.6 C 3.64 g/m*3 0.6 C 0 km/h
493 20-12-2010 02:34:01 0.4 C 3.64 g/m*3 0.4 C 0 km/h
494 20-12-2010 02:46:02 0.3 C 3.61 g/m*3 0.3 C 0 km/h
495 20-12-2010 02:58:02 0.1 C 3.66 g/m*3 0.1 C 0 km/h
496 20-12-2010 03:10:01 0 C 3.73 g/m*3 0 C 0 km/h
497 20-12-2010 03:22:01 -0.1 C 3.66 g/m*3 -0.1 C 0 km/h
498 20-12-2010 03:34:02 0 C 3.59 g/m*3 0 C 0 km/h
499 20-12-2010 03:46:02 -0.3 C 3.56 g/m*3 -0.3 C 0 km/h
500 20-12-2010 03:58:02 0 C 3.63 g/m*3 0 C 0 km/h
Sensor: Nr:Datum:Temp:Abs-Feuchte:Windchill:Wind:
Aussen-T/F 501 20-12-2010 04:10:01 -0.2 C 3.58 g/m*3 -0.2 C 0 km/h
502 20-12-2010 04:22:02 -0.6 C 3.63 g/m*3 -0.6 C 0 km/h
503 20-12-2010 04:34:01 -0.5 C 3.74 g/m*3 -0.5 C 0 km/h
504 20-12-2010 04:46:02 -0.4 C 3.72 g/m*3 -0.4 C 0 km/h
505 20-12-2010 04:58:02 -0.5 C 3.65 g/m*3 -0.5 C 0 km/h
506 20-12-2010 05:10:01 -0.7 C 3.6 g/m*3 -0.7 C 0 km/h
507 20-12-2010 05:22:01 -1 C 3.57 g/m*3 -1 C 0 km/h
508 20-12-2010 05:34:02 -1.1 C 3.55 g/m*3 -1.1 C 0 km/h
509 20-12-2010 05:46:01 -1.1 C 3.55 g/m*3 -1.1 C 0 km/h
510 20-12-2010 05:58:01 -1.2 C 3.52 g/m*3 -1.2 C 0 km/h
511 20-12-2010 06:10:02 -1.3 C 3.54 g/m*3 -1.3 C 0 km/h
512 20-12-2010 06:22:01 -1.3 C 3.54 g/m*3 -1.3 C 0 km/h
513 20-12-2010 06:34:02 -1.5 C 3.49 g/m*3 -1.5 C 0 km/h
514 20-12-2010 06:46:01 -1.9 C 3.4 g/m*3 -1.9 C 0 km/h
515 20-12-2010 06:58:01 -2.3 C 3.34 g/m*3 -2.3 C 0 km/h
516 20-12-2010 07:10:02 -2.5 C 3.34 g/m*3 -2.5 C 0 km/h
517 20-12-2010 07:22:01 -2.7 C 3.33 g/m*3 -2.7 C 0 km/h
518 20-12-2010 07:34:01 -2.4 C 3.44 g/m*3 -2.4 C 0 km/h
519 20-12-2010 07:46:01 -2.7 C 3.37 g/m*3 -2.7 C 0 km/h
520 20-12-2010 07:58:01 -2.7 C 3.41 g/m*3 -2.7 C 0 km/h
521 20-12-2010 08:10:02 -2.5 C 3.5 g/m*3 -2.5 C 0 km/h
522 20-12-2010 08:22:01 -2.5 C 3.5 g/m*3 -2.5 C 0 km/h
523 20-12-2010 08:34:01 -2.5 C 3.54 g/m*3 -2.5 C 0 km/h
524 20-12-2010 08:46:01 -2.4 C 3.57 g/m*3 -2.4 C 0 km/h
525 20-12-2010 08:58:01 -2.2 C 3.62 g/m*3 -2.2 C 0 km/h
Sensor: Nr:Datum:Temp:Abs-Feuchte:Windchill:Wind:
Aussen-T/F 526 20-12-2010 09:10:02 -2 C 3.67 g/m*3 -2 C 0 km/h
527 20-12-2010 09:22:01 -1.8 C 3.72 g/m*3 -1.8 C 0 km/h
528 20-12-2010 09:34:01 -1.9 C 3.61 g/m*3 -1.9 C 0 km/h
529 20-12-2010 09:46:01 -1.7 C 3.53 g/m*3 -1.7 C 0 km/h
530 20-12-2010 09:58:01 -1.6 C 3.42 g/m*3 -1.6 C 0 km/h
531 20-12-2010 10:10:01 -1.6 C 3.34 g/m*3 -1.6 C 0 km/h
532 20-12-2010 10:22:02 -1.3 C 3.36 g/m*3 -1.3 C 0 km/h
533 20-12-2010 10:34:01 -1.1 C 3.37 g/m*3 -1.1 C 0 km/h
534 20-12-2010 10:46:02 -1.1 C 3.28 g/m*3 -1.1 C 0 km/h
535 20-12-2010 10:58:02 -1 C 3.3 g/m*3 -1 C 0 km/h
536 20-12-2010 11:10:01 -0.9 C 3.28 g/m*3 -0.9 C 0 km/h
537 20-12-2010 11:22:02 -0.9 C 3.28 g/m*3 -0.9 C 0 km/h
538 20-12-2010 11:34:01 -0.8 C 3.25 g/m*3 -0.8 C 0 km/h
539 20-12-2010 11:46:02 -0.7 C 3.32 g/m*3 -0.7 C 0 km/h
540 20-12-2010 11:58:02 -0.7 C 3.28 g/m*3 -0.7 C 0 km/h
541 20-12-2010 12:10:01 -1 C 3.21 g/m*3 -1 C 0 km/h
542 20-12-2010 12:22:01 -1.1 C 3.28 g/m*3 -1.1 C 0 km/h
543 20-12-2010 12:34:02 -1.1 C 3.28 g/m*3 -1.1 C 0 km/h
544 20-12-2010 12:46:01 -1.1 C 3.28 g/m*3 -1.1 C 0 km/h
545 20-12-2010 12:58:01 -1 C 3.3 g/m*3 -1 C 0 km/h
546 20-12-2010 13:10:02 -0.9 C 3.28 g/m*3 -0.9 C 0 km/h
547 20-12-2010 13:22:01 -1 C 3.25 g/m*3 -1 C 0 km/h
548 20-12-2010 13:34:02 -0.9 C 3.28 g/m*3 -0.9 C 0 km/h
549 20-12-2010 13:46:01 -0.8 C 3.35 g/m*3 -0.8 C 0 km/h
550 20-12-2010 13:58:01 -1 C 3.25 g/m*3 -1 C 0 km/h
Sensor: Nr:Datum:Temp:Abs-Feuchte:Windchill:Wind:
Aussen-T/F 551 20-12-2010 14:10:02 -1 C 3.25 g/m*3 -1 C 0 km/h
552 20-12-2010 14:22:01 -0.9 C 3.28 g/m*3 -0.9 C 0 km/h
553 20-12-2010 14:34:01 -1 C 3.25 g/m*3 -1 C 0 km/h
554 20-12-2010 14:46:01 -1 C 3.25 g/m*3 -1 C 0 km/h
555 20-12-2010 14:58:01 -1 C 3.25 g/m*3 -1 C 0 km/h
556 20-12-2010 15:10:01 -1.1 C 3.23 g/m*3 -1.1 C 0 km/h
557 20-12-2010 15:22:01 -1 C 3.25 g/m*3 -1 C 0 km/h
558 20-12-2010 15:34:01 -1 C 3.25 g/m*3 -1 C 0 km/h
559 20-12-2010 15:46:01 -1 C 3.3 g/m*3 -1 C 0 km/h
560 20-12-2010 15:58:01 -1.3 C 3.28 g/m*3 -1.3 C 0 km/h
561 20-12-2010 16:10:01 -1.6 C 3.25 g/m*3 -1.6 C 0 km/h
562 20-12-2010 16:22:02 -2.9 C 2.93 g/m*3 -2.9 C 0 km/h
563 20-12-2010 16:34:01 -3.3 C 3 g/m*3 -3.3 C 0 km/h
564 20-12-2010 16:46:02 -3.5 C 3.03 g/m*3 -3.5 C 0 km/h
565 20-12-2010 16:58:02 -3.9 C 3.02 g/m*3 -3.9 C 0 km/h
566 20-12-2010 17:10:01 -4.2 C 2.99 g/m*3 -4.2 C 0 km/h
567 20-12-2010 17:22:01 -3.8 C 3.12 g/m*3 -3.8 C 0 km/h
568 20-12-2010 17:34:01 -3.4 C 3.28 g/m*3 -3.4 C 0 km/h
569 20-12-2010 17:46:01 -3.2 C 3.33 g/m*3 -3.2 C 0 km/h
570 20-12-2010 17:58:02 -3 C 3.42 g/m*3 -3 C 0 km/h
571 20-12-2010 18:10:01 -3 C 3.42 g/m*3 -3 C 0 km/h
572 20-12-2010 18:22:01 -3.1 C 3.39 g/m*3 -3.1 C 0 km/h
573 20-12-2010 18:34:02 -3.1 C 3.39 g/m*3 -3.1 C 0 km/h
574 20-12-2010 18:46:01 -3.1 C 3.39 g/m*3 -3.1 C 0 km/h
575 20-12-2010 18:58:01 -2.9 C 3.48 g/m*3 -2.9 C 0 km/h
Sensor: Nr:Datum:Temp:Abs-Feuchte:Windchill:Wind:
Aussen-T/F 576 20-12-2010 19:10:02 -2.9 C 3.48 g/m*3 -2.9 C 0 km/h
577 20-12-2010 19:22:01 -2.9 C 3.48 g/m*3 -2.9 C 0 km/h
578 20-12-2010 19:34:01 -3 C 3.46 g/m*3 -3 C 0 km/h
579 20-12-2010 19:46:01 -3 C 3.46 g/m*3 -3 C 0 km/h
580 20-12-2010 19:58:01 -3.2 C 3.37 g/m*3 -3.2 C 0 km/h
581 20-12-2010 20:10:02 -3.1 C 3.43 g/m*3 -3.1 C 0 km/h
582 20-12-2010 20:22:01 -2.8 C 3.51 g/m*3 -2.8 C 0 km/h
583 20-12-2010 20:34:01 -2.9 C 3.48 g/m*3 -2.9 C 0 km/h
584 20-12-2010 20:46:01 -2.9 C 3.48 g/m*3 -2.9 C 0 km/h
585 20-12-2010 20:58:01 -2.9 C 3.48 g/m*3 -2.9 C 0 km/h
586 20-12-2010 21:10:01 -3.2 C 3.37 g/m*3 -3.2 C 0 km/h
587 20-12-2010 21:23:04 -3.3 C 3.35 g/m*3 -3.3 C 0 km/h
588 20-12-2010 21:35:04 -3.6 C 3.27 g/m*3 -3.6 C 0 km/h
589 20-12-2010 21:47:05 -3.8 C 3.23 g/m*3 -3.8 C 0 km/h
590 20-12-2010 21:59:05 -4.3 C 3.08 g/m*3 -4.3 C 0 km/h
591 20-12-2010 22:11:05 -4.5 C 3.04 g/m*3 -4.5 C 0 km/h
592 20-12-2010 22:23:05 -4.5 C 3.04 g/m*3 -4.5 C 0 km/h
593 20-12-2010 22:35:05 -4.4 C 3.09 g/m*3 -4.4 C 0 km/h
594 20-12-2010 22:47:05 -4.2 C 3.14 g/m*3 -4.2 C 0 km/h
595 20-12-2010 22:59:05 -3.9 C 3.24 g/m*3 -3.9 C 0 km/h
596 20-12-2010 23:11:05 -3.6 C 3.31 g/m*3 -3.6 C 0 km/h
597 20-12-2010 23:23:05 -3.4 C 3.4 g/m*3 -3.4 C 0 km/h
598 20-12-2010 23:35:05 -3.5 C 3.34 g/m*3 -3.5 C 0 km/h
599 20-12-2010 23:47:05 -3.4 C 3.4 g/m*3 -3.4 C 0 km/h
600 20-12-2010 23:59:05 -3.4 C 3.4 g/m*3 -3.4 C 0 km/h
Sensor: Nr:Datum:Temp:Abs-Feuchte:Windchill:Wind:
Aussen-T/F 601 21-12-2010 00:11:05 -3.7 C 3.29 g/m*3 -3.7 C 0 km/h
602 21-12-2010 00:23:05 -3.8 C 3.27 g/m*3 -3.8 C 0 km/h
603 21-12-2010 00:35:05 -3.7 C 3.33 g/m*3 -3.7 C 0 km/h
604 21-12-2010 00:47:05 -3.6 C 3.35 g/m*3 -3.6 C 0 km/h
605 21-12-2010 00:59:05 -3.3 C 3.42 g/m*3 -3.3 C 0 km/h
606 21-12-2010 01:11:05 -3.1 C 3.47 g/m*3 -3.1 C 0 km/h
607 21-12-2010 01:23:05 -3 C 3.5 g/m*3 -3 C 0 km/h
608 21-12-2010 01:35:05 -2.8 C 3.55 g/m*3 -2.8 C 0 km/h
609 21-12-2010 01:47:05 -2.8 C 3.55 g/m*3 -2.8 C 0 km/h
610 21-12-2010 01:59:06 -2.7 C 3.57 g/m*3 -2.7 C 0 km/h
611 21-12-2010 02:11:06 -2.7 C 3.57 g/m*3 -2.7 C 0 km/h
612 21-12-2010 02:23:06 -2.5 C 3.62 g/m*3 -2.5 C 0 km/h
613 21-12-2010 02:35:06 -2.7 C 3.57 g/m*3 -2.7 C 0 km/h
614 21-12-2010 02:47:06 -2.6 C 3.6 g/m*3 -2.6 C 0 km/h
615 21-12-2010 02:59:06 -2.5 C 3.62 g/m*3 -2.5 C 0 km/h
616 21-12-2010 03:11:06 -2.6 C 3.56 g/m*3 -2.6 C 0 km/h
617 21-12-2010 03:23:06 -2.6 C 3.56 g/m*3 -2.6 C 0 km/h
618 21-12-2010 03:35:06 -2.6 C 3.56 g/m*3 -2.6 C 0 km/h
619 21-12-2010 03:47:06 -2.5 C 3.58 g/m*3 -2.5 C 0 km/h
620 21-12-2010 03:59:06 -2.4 C 3.61 g/m*3 -2.4 C 0 km/h
621 21-12-2010 04:11:06 -2.3 C 3.63 g/m*3 -2.3 C 0 km/h
622 21-12-2010 04:23:06 -2.2 C 3.66 g/m*3 -2.2 C 0 km/h
623 21-12-2010 04:35:06 -2.1 C 3.68 g/m*3 -2.1 C 0 km/h
624 21-12-2010 04:47:06 -2.1 C 3.68 g/m*3 -2.1 C 0 km/h
625 21-12-2010 04:59:06 -2 C 3.71 g/m*3 -2 C 0 km/h
Sensor: Nr:Datum:Temp:Abs-Feuchte:Windchill:Wind:
Aussen-T/F 626 21-12-2010 05:11:06 -2 C 3.71 g/m*3 -2 C 0 km/h
627 21-12-2010 05:23:06 -1.9 C 3.74 g/m*3 -1.9 C 0 km/h
628 21-12-2010 05:35:06 -1.9 C 3.74 g/m*3 -1.9 C 0 km/h
629 21-12-2010 05:47:06 -1.8 C 3.8 g/m*3 -1.8 C 0 km/h
630 21-12-2010 05:59:07 -1.8 C 3.8 g/m*3 -1.8 C 0 km/h
631 21-12-2010 06:11:07 -1.8 C 3.8 g/m*3 -1.8 C 0 km/h
632 21-12-2010 06:23:07 -1.8 C 3.8 g/m*3 -1.8 C 0 km/h
633 21-12-2010 06:35:07 -1.8 C 3.8 g/m*3 -1.8 C 0 km/h
634 21-12-2010 06:47:07 -1.8 C 3.8 g/m*3 -1.8 C 0 km/h
635 21-12-2010 06:59:07 -1.7 C 3.83 g/m*3 -1.7 C 0 km/h
636 21-12-2010 07:11:07 -1.7 C 3.83 g/m*3 -1.7 C 0 km/h
637 21-12-2010 07:23:07 -1.4 C 3.91 g/m*3 -1.4 C 0 km/h
638 21-12-2010 07:35:05 -1.8 C 3.8 g/m*3 -1.8 C 0 km/h
639 21-12-2010 07:47:02 -1.8 C 3.8 g/m*3 -1.8 C 0 km/h
640 21-12-2010 07:59:02 -1.8 C 3.8 g/m*3 -1.8 C 0 km/h
641 21-12-2010 08:11:02 -1.7 C 3.83 g/m*3 -1.7 C 0 km/h
642 21-12-2010 08:23:01 -1.6 C 3.86 g/m*3 -1.6 C 0 km/h
643 21-12-2010 08:35:02 -1.6 C 3.86 g/m*3 -1.6 C 0 km/h
644 21-12-2010 08:47:02 -1.7 C 3.83 g/m*3 -1.7 C 0 km/h
645 21-12-2010 08:59:02 -1.6 C 3.86 g/m*3 -1.6 C 0 km/h
646 21-12-2010 09:11:02 -1.4 C 3.91 g/m*3 -1.4 C 0 km/h
647 21-12-2010 09:23:02 -1.3 C 3.94 g/m*3 -1.3 C 0 km/h
648 21-12-2010 09:35:02 -1.2 C 3.92 g/m*3 -1.2 C 0 km/h
649 21-12-2010 09:47:02 -1.1 C 3.91 g/m*3 -1.1 C 0 km/h
650 21-12-2010 09:59:02 -1.2 C 3.88 g/m*3 -1.2 C 0 km/h
Sensor: Nr:Datum:Temp:Abs-Feuchte:Windchill:Wind:
Aussen-T/F 651 21-12-2010 10:11:02 -0.7 C 3.97 g/m*3 -0.7 C 0 km/h
652 21-12-2010 10:23:02 -0.8 C 3.9 g/m*3 -0.8 C 0 km/h
653 21-12-2010 10:35:02 -0.9 C 3.82 g/m*3 -0.9 C 0 km/h
654 21-12-2010 10:47:02 -0.3 C 3.99 g/m*3 -0.3 C 0 km/h
655 21-12-2010 10:59:02 -0.3 C 3.89 g/m*3 -0.3 C 0 km/h
656 21-12-2010 11:11:02 0.1 C 3.95 g/m*3 0.1 C 0 km/h
657 21-12-2010 11:23:02 0.4 C 4.03 g/m*3 0.4 C 0 km/h
658 21-12-2010 11:35:01 0.6 C 3.99 g/m*3 0.6 C 0 km/h
659 21-12-2010 11:47:02 0.8 C 4.04 g/m*3 0.8 C 0 km/h
660 21-12-2010 11:59:02 0.6 C 3.89 g/m*3 0.6 C 0 km/h
661 21-12-2010 12:11:01 0.9 C 3.92 g/m*3 0.9 C 0 km/h
662 21-12-2010 12:23:02 1.2 C 3.95 g/m*3 1.2 C 0 km/h
663 21-12-2010 12:35:02 1.3 C 4.03 g/m*3 1.3 C 0 km/h
664 21-12-2010 12:47:02 1.4 C 4.05 g/m*3 1.4 C 0 km/h
665 21-12-2010 12:59:02 0.9 C 3.92 g/m*3 0.9 C 0 km/h
666 21-12-2010 13:11:02 1.3 C 4.08 g/m*3 1.3 C 0 km/h
667 21-12-2010 13:23:02 1.4 C 4.11 g/m*3 1.4 C 0 km/h
668 21-12-2010 13:35:02 1.5 C 4.14 g/m*3 1.5 C 0 km/h
669 21-12-2010 13:47:01 1.5 C 4.14 g/m*3 1.5 C 0 km/h
670 21-12-2010 13:59:01 1.5 C 4.14 g/m*3 1.5 C 0 km/h
671 21-12-2010 14:11:02 1.4 C 4.11 g/m*3 1.4 C 0 km/h
672 21-12-2010 14:23:01 1.2 C 4.05 g/m*3 1.2 C 0 km/h
673 21-12-2010 14:35:01 1.2 C 4.05 g/m*3 1.2 C 0 km/h
674 21-12-2010 14:47:01 1.2 C 4.05 g/m*3 1.2 C 0 km/h
675 21-12-2010 14:59:01 1.2 C 4.05 g/m*3 1.2 C 0 km/h
Sensor: Nr:Datum:Temp:Abs-Feuchte:Windchill:Wind:
Aussen-T/F 676 21-12-2010 15:11:02 1.2 C 4.05 g/m*3 1.2 C 0 km/h
677 21-12-2010 15:23:01 1.3 C 4.19 g/m*3 1.3 C 0 km/h
678 21-12-2010 15:35:01 1.2 C 4.21 g/m*3 1.2 C 0 km/h
679 21-12-2010 15:47:01 1.1 C 4.23 g/m*3 1.1 C 0 km/h
680 21-12-2010 15:59:01 1.1 C 4.23 g/m*3 1.1 C 0 km/h
681 21-12-2010 16:11:02 1.1 C 4.23 g/m*3 1.1 C 0 km/h
682 21-12-2010 16:23:02 0.6 C 4.19 g/m*3 0.6 C 0 km/h
683 21-12-2010 16:35:01 0.6 C 4.19 g/m*3 0.6 C 0 km/h
684 21-12-2010 16:47:02 0.3 C 4.16 g/m*3 0.3 C 0 km/h
685 21-12-2010 16:59:02 0.3 C 4.2 g/m*3 0.3 C 0 km/h
686 21-12-2010 17:11:01 0.3 C 4.25 g/m*3 0.3 C 0 km/h
687 21-12-2010 17:23:02 0.3 C 4.3 g/m*3 0.3 C 0 km/h
688 21-12-2010 17:35:01 0.1 C 4.29 g/m*3 0.1 C 0 km/h
689 21-12-2010 17:47:02 0.1 C 4.29 g/m*3 0.1 C 0 km/h
690 21-12-2010 17:59:02 0 C 4.26 g/m*3 0 C 0 km/h
691 21-12-2010 18:11:02 0.1 C 4.34 g/m*3 0.1 C 0 km/h
692 21-12-2010 18:23:02 0.2 C 4.37 g/m*3 0.2 C 0 km/h
693 21-12-2010 18:35:02 0.2 C 4.37 g/m*3 0.2 C 0 km/h
694 21-12-2010 18:47:02 0.2 C 4.37 g/m*3 0.2 C 0 km/h
695 21-12-2010 18:59:02 0.2 C 4.42 g/m*3 0.2 C 0 km/h
696 21-12-2010 19:11:02 0.2 C 4.42 g/m*3 0.2 C 0 km/h
697 21-12-2010 19:23:01 0.1 C 4.39 g/m*3 0.1 C 0 km/h
698 21-12-2010 19:35:02 0.1 C 4.39 g/m*3 0.1 C 0 km/h
699 21-12-2010 19:47:02 0.1 C 4.39 g/m*3 0.1 C 0 km/h
700 21-12-2010 19:59:02 0.1 C 4.39 g/m*3 0.1 C 0 km/h
Sensor: Nr:Datum:Temp:Abs-Feuchte:Windchill:Wind:
Aussen-T/F 701 21-12-2010 20:11:02 0.1 C 4.39 g/m*3 0.1 C 0 km/h
702 21-12-2010 20:23:01 0.1 C 4.39 g/m*3 0.1 C 0 km/h
703 21-12-2010 20:35:02 0.1 C 4.39 g/m*3 0.1 C 0 km/h
704 21-12-2010 20:47:02 0.1 C 4.39 g/m*3 0.1 C 0 km/h
705 21-12-2010 20:59:02 0.2 C 4.42 g/m*3 0.2 C 0 km/h
706 21-12-2010 21:11:02 0.1 C 4.44 g/m*3 0.1 C 0 km/h
707 21-12-2010 21:23:01 0.1 C 4.44 g/m*3 0.1 C 0 km/h
708 21-12-2010 21:35:02 0.2 C 4.47 g/m*3 0.2 C 0 km/h
709 21-12-2010 21:47:01 0.1 C 4.44 g/m*3 0.1 C 0 km/h
710 21-12-2010 21:59:01 0.1 C 4.44 g/m*3 0.1 C 0 km/h
711 21-12-2010 22:11:02 0.1 C 4.44 g/m*3 0.1 C 0 km/h
712 21-12-2010 22:24:04 0.1 C 4.44 g/m*3 0.1 C 0 km/h
713 21-12-2010 22:36:04 0.2 C 4.47 g/m*3 0.2 C 0 km/h
714 21-12-2010 22:48:04 0.2 C 4.47 g/m*3 0.2 C 0 km/h
715 21-12-2010 23:00:04 0.2 C 4.47 g/m*3 0.2 C 0 km/h
716 21-12-2010 23:12:04 0.1 C 4.44 g/m*3 0.1 C 0 km/h
717 21-12-2010 23:24:04 0.1 C 4.44 g/m*3 0.1 C 0 km/h
718 21-12-2010 23:36:04 0.1 C 4.44 g/m*3 0.1 C 0 km/h
719 21-12-2010 23:48:04 0.1 C 4.44 g/m*3 0.1 C 0 km/h
720 22-12-2010 00:00:04 0.1 C 4.44 g/m*3 0.1 C 0 km/h
721 22-12-2010 00:12:04 0.1 C 4.49 g/m*3 0.1 C 0 km/h
722 22-12-2010 00:24:04 0.1 C 4.49 g/m*3 0.1 C 0 km/h
723 22-12-2010 00:36:04 0.1 C 4.49 g/m*3 0.1 C 0 km/h
724 22-12-2010 00:48:04 0.1 C 4.49 g/m*3 0.1 C 0 km/h
725 22-12-2010 01:00:04 0.1 C 4.49 g/m*3 0.1 C 0 km/h
Sensor: Nr:Datum:Temp:Abs-Feuchte:Windchill:Wind:
Aussen-T/F 726 22-12-2010 01:12:04 0.1 C 4.49 g/m*3 0.1 C 0 km/h
727 22-12-2010 01:24:04 0.2 C 4.52 g/m*3 0.2 C 0 km/h
728 22-12-2010 01:36:04 0.2 C 4.52 g/m*3 0.2 C 0 km/h
729 22-12-2010 01:48:04 0.2 C 4.52 g/m*3 0.2 C 0 km/h
730 22-12-2010 02:00:04 0.2 C 4.52 g/m*3 0.2 C 0 km/h
731 22-12-2010 02:12:05 0.2 C 4.52 g/m*3 0.2 C 0 km/h
732 22-12-2010 02:24:05 0.2 C 4.52 g/m*3 0.2 C 0 km/h
733 22-12-2010 02:36:05 0.2 C 4.52 g/m*3 0.2 C 0 km/h
734 22-12-2010 02:48:05 0.2 C 4.52 g/m*3 0.2 C 0 km/h
735 22-12-2010 03:00:05 0.2 C 4.52 g/m*3 0.2 C 0 km/h
736 22-12-2010 03:12:05 0.2 C 4.52 g/m*3 0.2 C 0 km/h
737 22-12-2010 03:24:05 0.1 C 4.49 g/m*3 0.1 C 0 km/h
738 22-12-2010 03:36:05 0.1 C 4.49 g/m*3 0.1 C 0 km/h
739 22-12-2010 03:48:05 0.2 C 4.52 g/m*3 0.2 C 0 km/h
740 22-12-2010 04:00:05 0.2 C 4.52 g/m*3 0.2 C 0 km/h
741 22-12-2010 04:12:05 0.3 C 4.55 g/m*3 0.3 C 0 km/h
742 22-12-2010 04:24:05 0.3 C 4.55 g/m*3 0.3 C 0 km/h
743 22-12-2010 04:36:05 0.3 C 4.55 g/m*3 0.3 C 0 km/h
744 22-12-2010 04:48:05 0.3 C 4.55 g/m*3 0.3 C 0 km/h
745 22-12-2010 05:00:05 0.3 C 4.55 g/m*3 0.3 C 0 km/h
746 22-12-2010 05:12:05 0.3 C 4.55 g/m*3 0.3 C 0 km/h
747 22-12-2010 05:24:05 0.3 C 4.55 g/m*3 0.3 C 0 km/h
748 22-12-2010 05:36:05 0.3 C 4.55 g/m*3 0.3 C 0 km/h
749 22-12-2010 05:48:05 0.3 C 4.55 g/m*3 0.3 C 0 km/h
750 22-12-2010 06:00:05 0.3 C 4.55 g/m*3 0.3 C 0 km/h
Sensor: Nr:Datum:Temp:Abs-Feuchte:Windchill:Wind:
Aussen-T/F 751 22-12-2010 06:12:06 0.3 C 4.55 g/m*3 0.3 C 0 km/h
752 22-12-2010 06:24:06 0.3 C 4.55 g/m*3 0.3 C 0 km/h
753 22-12-2010 06:36:06 0.3 C 4.55 g/m*3 0.3 C 0 km/h
754 22-12-2010 06:48:06 0.3 C 4.55 g/m*3 0.3 C 0 km/h
755 22-12-2010 07:00:06 0.3 C 4.55 g/m*3 0.3 C 0 km/h
756 22-12-2010 07:12:06 0.3 C 4.55 g/m*3 0.3 C 0 km/h
757 22-12-2010 07:24:06 0.3 C 4.55 g/m*3 0.3 C 0 km/h
758 22-12-2010 07:36:03 0.3 C 4.6 g/m*3 0.3 C 0 km/h
759 22-12-2010 07:48:02 0.3 C 4.6 g/m*3 0.3 C 0 km/h
760 22-12-2010 08:00:02 0.3 C 4.6 g/m*3 0.3 C 0 km/h
761 22-12-2010 08:12:02 0.3 C 4.6 g/m*3 0.3 C 0 km/h
762 22-12-2010 08:24:01 0.3 C 4.6 g/m*3 0.3 C 0 km/h
763 22-12-2010 08:36:02 0.4 C 4.63 g/m*3 0.4 C 0 km/h
764 22-12-2010 08:48:02 0.4 C 4.63 g/m*3 0.4 C 0 km/h
765 22-12-2010 09:00:02 0.4 C 4.63 g/m*3 0.4 C 0 km/h
766 22-12-2010 09:12:02 0.6 C 4.7 g/m*3 0.6 C 0 km/h
767 22-12-2010 09:24:01 0.7 C 4.73 g/m*3 0.7 C 0 km/h
768 22-12-2010 09:36:02 0.9 C 4.79 g/m*3 0.9 C 0 km/h
769 22-12-2010 09:48:01 0.9 C 4.79 g/m*3 0.9 C 0 km/h
770 22-12-2010 10:00:01 1.1 C 4.81 g/m*3 1.1 C 0 km/h
771 22-12-2010 10:12:02 1.2 C 4.84 g/m*3 1.2 C 0 km/h
772 22-12-2010 10:24:02 1.2 C 4.84 g/m*3 1.2 C 0 km/h
773 22-12-2010 10:36:02 1.7 C 5.01 g/m*3 1.7 C 0 km/h
774 22-12-2010 10:48:02 1.7 C 5.01 g/m*3 1.7 C 0 km/h
775 22-12-2010 11:00:02 2 C 5 g/m*3 2 C 0 km/h
Sensor: Nr:Datum:Temp:Abs-Feuchte:Windchill:Wind:
Aussen-T/F 776 22-12-2010 11:12:02 1.9 C 4.97 g/m*3 1.9 C 0 km/h
777 22-12-2010 11:24:02 2.3 C 5.05 g/m*3 2.3 C 0 km/h
778 22-12-2010 11:36:01 2.7 C 5.13 g/m*3 2.7 C 0 km/h
779 22-12-2010 11:48:02 2.6 C 4.98 g/m*3 2.6 C 0 km/h
780 22-12-2010 12:00:02 2.7 C 4.95 g/m*3 2.7 C 0 km/h
781 22-12-2010 12:12:01 2.7 C 4.89 g/m*3 2.7 C 0 km/h
782 22-12-2010 12:24:01 2.9 C 4.9 g/m*3 2.9 C 0 km/h
783 22-12-2010 12:36:02 2.9 C 4.9 g/m*3 2.9 C 0 km/h
784 22-12-2010 12:48:02 2.6 C 4.8 g/m*3 2.6 C 0 km/h
785 22-12-2010 13:00:02 2.6 C 4.8 g/m*3 2.6 C 0 km/h
786 22-12-2010 13:12:02 2.3 C 4.71 g/m*3 2.3 C 0 km/h
787 22-12-2010 13:24:02 2.6 C 4.8 g/m*3 2.6 C 0 km/h
788 22-12-2010 13:36:02 2.3 C 4.71 g/m*3 2.3 C 0 km/h
789 22-12-2010 13:48:02 2.1 C 4.64 g/m*3 2.1 C 0 km/h
790 22-12-2010 14:00:02 2.1 C 4.7 g/m*3 2.1 C 0 km/h
791 22-12-2010 14:12:02 2.3 C 4.76 g/m*3 2.3 C 0 km/h
792 22-12-2010 14:24:02 2.6 C 4.86 g/m*3 2.6 C 0 km/h
793 22-12-2010 14:36:02 2.6 C 4.8 g/m*3 2.6 C 0 km/h
794 22-12-2010 14:48:02 2.4 C 4.68 g/m*3 2.4 C 0 km/h
795 22-12-2010 15:00:02 2 C 4.61 g/m*3 2 C 0 km/h
796 22-12-2010 15:12:02 1.7 C 4.57 g/m*3 1.7 C 0 km/h
797 22-12-2010 15:24:02 1.6 C 4.6 g/m*3 1.6 C 0 km/h
798 22-12-2010 15:36:02 1.6 C 4.6 g/m*3 1.6 C 0 km/h
799 22-12-2010 15:48:02 1.4 C 4.59 g/m*3 1.4 C 0 km/h
800 22-12-2010 16:00:02 1.4 C 4.64 g/m*3 1.4 C 0 km/h
Sensor: Nr:Datum:Temp:Abs-Feuchte:Windchill:Wind:
Aussen-T/F 801 22-12-2010 16:12:02 1.2 C 4.58 g/m*3 1.2 C 0 km/h
802 22-12-2010 16:24:02 1.2 C 4.63 g/m*3 1.2 C 0 km/h
803 22-12-2010 16:36:02 1 C 4.57 g/m*3 1 C 0 km/h
804 22-12-2010 16:48:02 1 C 4.57 g/m*3 1 C 0 km/h
805 22-12-2010 17:00:02 0.9 C 4.59 g/m*3 0.9 C 0 km/h
806 22-12-2010 17:12:02 0.8 C 4.56 g/m*3 0.8 C 0 km/h
807 22-12-2010 17:24:02 0.7 C 4.58 g/m*3 0.7 C 0 km/h
808 22-12-2010 17:36:01 0.8 C 4.61 g/m*3 0.8 C 0 km/h
809 22-12-2010 17:48:02 0.8 C 4.66 g/m*3 0.8 C 0 km/h
810 22-12-2010 18:00:02 0.7 C 4.63 g/m*3 0.7 C 0 km/h
811 22-12-2010 18:12:01 0.7 C 4.63 g/m*3 0.7 C 0 km/h
812 22-12-2010 18:24:01 0.6 C 4.6 g/m*3 0.6 C 0 km/h
813 22-12-2010 18:36:02 0.8 C 4.66 g/m*3 0.8 C 0 km/h
814 22-12-2010 18:48:02 0.7 C 4.63 g/m*3 0.7 C 0 km/h
815 22-12-2010 19:00:02 0.7 C 4.68 g/m*3 0.7 C 0 km/h
816 22-12-2010 19:12:02 0.8 C 4.71 g/m*3 0.8 C 0 km/h
817 22-12-2010 19:24:02 0.8 C 4.71 g/m*3 0.8 C 0 km/h
818 22-12-2010 19:36:02 0.8 C 4.71 g/m*3 0.8 C 0 km/h
819 22-12-2010 19:48:02 0.8 C 4.71 g/m*3 0.8 C 0 km/h
820 22-12-2010 20:00:02 0.7 C 4.68 g/m*3 0.7 C 0 km/h
821 22-12-2010 20:12:03 0.8 C 4.71 g/m*3 0.8 C 0 km/h
822 22-12-2010 20:24:02 0.8 C 4.71 g/m*3 0.8 C 0 km/h
823 22-12-2010 20:36:02 0.8 C 4.71 g/m*3 0.8 C 0 km/h
824 22-12-2010 20:48:01 0.8 C 4.71 g/m*3 0.8 C 0 km/h
825 22-12-2010 21:00:01 0.8 C 4.71 g/m*3 0.8 C 0 km/h
Sensor: Nr:Datum:Temp:Abs-Feuchte:Windchill:Wind:
Aussen-T/F 826 22-12-2010 21:12:01 0.8 C 4.71 g/m*3 0.8 C 0 km/h
827 22-12-2010 21:24:01 0.8 C 4.71 g/m*3 0.8 C 0 km/h
828 22-12-2010 21:36:01 0.8 C 4.71 g/m*3 0.8 C 0 km/h
829 22-12-2010 21:48:01 0.8 C 4.71 g/m*3 0.8 C 0 km/h
830 22-12-2010 22:00:01 0.7 C 4.68 g/m*3 0.7 C 0 km/h
831 22-12-2010 22:13:03 0.7 C 4.68 g/m*3 0.7 C 0 km/h
832 22-12-2010 22:25:03 0.7 C 4.68 g/m*3 0.7 C 0 km/h
833 22-12-2010 22:37:03 0.7 C 4.68 g/m*3 0.7 C 0 km/h
834 22-12-2010 22:49:03 0.7 C 4.68 g/m*3 0.7 C 0 km/h
835 22-12-2010 23:01:03 0.7 C 4.68 g/m*3 0.7 C 0 km/h
836 22-12-2010 23:13:03 0.7 C 4.68 g/m*3 0.7 C 0 km/h
837 22-12-2010 23:25:03 0.7 C 4.68 g/m*3 0.7 C 0 km/h
838 22-12-2010 23:37:03 0.7 C 4.68 g/m*3 0.7 C 0 km/h
839 22-12-2010 23:49:03 0.7 C 4.68 g/m*3 0.7 C 0 km/h
840 23-12-2010 00:01:03 0.7 C 4.68 g/m*3 0.7 C 0 km/h
841 23-12-2010 00:13:03 0.8 C 4.76 g/m*3 0.8 C 0 km/h
842 23-12-2010 00:25:03 0.8 C 4.76 g/m*3 0.8 C 0 km/h
843 23-12-2010 00:37:03 0.8 C 4.76 g/m*3 0.8 C 0 km/h
844 23-12-2010 00:49:03 0.7 C 4.73 g/m*3 0.7 C 0 km/h
845 23-12-2010 01:01:04 0.7 C 4.73 g/m*3 0.7 C 0 km/h
846 23-12-2010 01:13:04 0.7 C 4.73 g/m*3 0.7 C 0 km/h
847 23-12-2010 01:25:04 0.7 C 4.73 g/m*3 0.7 C 0 km/h
848 23-12-2010 01:37:04 0.7 C 4.73 g/m*3 0.7 C 0 km/h
849 23-12-2010 01:49:04 0.7 C 4.73 g/m*3 0.7 C 0 km/h
850 23-12-2010 02:01:04 0.7 C 4.73 g/m*3 0.7 C 0 km/h
Sensor: Nr:Datum:Temp:Abs-Feuchte:Windchill:Wind:
Aussen-T/F 851 23-12-2010 02:13:04 0.7 C 4.73 g/m*3 0.7 C 0 km/h
852 23-12-2010 02:25:04 0.7 C 4.73 g/m*3 0.7 C 0 km/h
853 23-12-2010 02:37:04 0.7 C 4.73 g/m*3 0.7 C 0 km/h
854 23-12-2010 02:49:04 0.7 C 4.73 g/m*3 0.7 C 0 km/h
855 23-12-2010 03:01:04 0.7 C 4.73 g/m*3 0.7 C 0 km/h
856 23-12-2010 03:13:04 0.7 C 4.73 g/m*3 0.7 C 0 km/h
857 23-12-2010 03:25:04 0.7 C 4.73 g/m*3 0.7 C 0 km/h
858 23-12-2010 03:37:04 0.7 C 4.73 g/m*3 0.7 C 0 km/h
859 23-12-2010 03:49:04 0.7 C 4.73 g/m*3 0.7 C 0 km/h
860 23-12-2010 04:01:04 0.7 C 4.73 g/m*3 0.7 C 0 km/h
861 23-12-2010 04:13:04 0.7 C 4.73 g/m*3 0.7 C 0 km/h
862 23-12-2010 04:25:04 0.7 C 4.73 g/m*3 0.7 C 0 km/h
863 23-12-2010 04:37:04 0.6 C 4.7 g/m*3 0.6 C 0 km/h
864 23-12-2010 04:49:04 0.6 C 4.7 g/m*3 0.6 C 0 km/h
865 23-12-2010 05:01:04 0.6 C 4.7 g/m*3 0.6 C 0 km/h
866 23-12-2010 05:13:05 0.6 C 4.7 g/m*3 0.6 C 0 km/h
867 23-12-2010 05:25:05 0.4 C 4.63 g/m*3 0.4 C 0 km/h
868 23-12-2010 05:37:05 0.4 C 4.63 g/m*3 0.4 C 0 km/h
869 23-12-2010 05:49:05 0.4 C 4.63 g/m*3 0.4 C 0 km/h
870 23-12-2010 06:01:05 0.4 C 4.63 g/m*3 0.4 C 0 km/h
871 23-12-2010 06:13:05 0.4 C 4.63 g/m*3 0.4 C 0 km/h
872 23-12-2010 06:25:05 0.4 C 4.63 g/m*3 0.4 C 0 km/h
873 23-12-2010 06:37:05 0.4 C 4.63 g/m*3 0.4 C 0 km/h
874 23-12-2010 06:49:05 0.1 C 4.54 g/m*3 0.1 C 0 km/h
875 23-12-2010 07:01:05 0.1 C 4.54 g/m*3 0.1 C 0 km/h
Sensor: Nr:Datum:Temp:Abs-Feuchte:Windchill:Wind:
Aussen-T/F 876 23-12-2010 07:13:05 0.1 C 4.54 g/m*3 0.1 C 0 km/h
877 23-12-2010 07:25:03 0 C 4.51 g/m*3 0 C 0 km/h
878 23-12-2010 07:37:03 -0.1 C 4.47 g/m*3 -0.1 C 0 km/h
879 23-12-2010 07:49:02 -0.1 C 4.47 g/m*3 -0.1 C 0 km/h
880 23-12-2010 08:01:02 -0.2 C 4.44 g/m*3 -0.2 C 0 km/h
881 23-12-2010 08:13:03 -0.2 C 4.44 g/m*3 -0.2 C 0 km/h
882 23-12-2010 08:25:02 -0.3 C 4.41 g/m*3 -0.3 C 0 km/h
883 23-12-2010 08:37:02 -0.4 C 4.34 g/m*3 -0.4 C 0 km/h
884 23-12-2010 08:49:01 -0.5 C 4.31 g/m*3 -0.5 C 0 km/h
885 23-12-2010 09:01:01 -0.5 C 4.31 g/m*3 -0.5 C 0 km/h
886 23-12-2010 09:13:01 -0.5 C 4.31 g/m*3 -0.5 C 0 km/h
887 23-12-2010 09:25:02 -0.6 C 4.28 g/m*3 -0.6 C 0 km/h
888 23-12-2010 09:37:01 -0.5 C 4.31 g/m*3 -0.5 C 0 km/h
889 23-12-2010 09:49:03 -0.4 C 4.34 g/m*3 -0.4 C 0 km/h
890 23-12-2010 10:01:02 -0.4 C 4.34 g/m*3 -0.4 C 0 km/h
891 23-12-2010 10:13:02 -0.4 C 4.34 g/m*3 -0.4 C 0 km/h
892 23-12-2010 10:25:02 -0.5 C 4.31 g/m*3 -0.5 C 0 km/h
893 23-12-2010 10:37:02 -0.7 C 4.2 g/m*3 -0.7 C 0 km/h
894 23-12-2010 10:49:02 -0.7 C 4.15 g/m*3 -0.7 C 0 km/h
895 23-12-2010 11:01:01 -0.8 C 4.13 g/m*3 -0.8 C 0 km/h
896 23-12-2010 11:13:01 -0.6 C 4.18 g/m*3 -0.6 C 0 km/h
897 23-12-2010 11:25:02 -0.5 C 4.21 g/m*3 -0.5 C 0 km/h
898 23-12-2010 11:37:02 -0.5 C 4.21 g/m*3 -0.5 C 0 km/h
899 23-12-2010 11:49:01 -0.5 C 4.21 g/m*3 -0.5 C 0 km/h
900 23-12-2010 12:01:01 -0.5 C 4.21 g/m*3 -0.5 C 0 km/h
Sensor: Nr:Datum:Temp:Abs-Feuchte:Windchill:Wind:
Aussen-T/F 901 23-12-2010 12:13:01 -0.8 C 4.03 g/m*3 -0.8 C 0 km/h
902 23-12-2010 12:25:01 -0.7 C 4.02 g/m*3 -0.7 C 0 km/h
903 23-12-2010 12:37:02 -0.7 C 4.02 g/m*3 -0.7 C 0 km/h
904 23-12-2010 12:49:02 -0.7 C 4.02 g/m*3 -0.7 C 0 km/h
905 23-12-2010 13:01:02 -0.7 C 4.02 g/m*3 -0.7 C 0 km/h
906 23-12-2010 13:13:02 -0.6 C 4.04 g/m*3 -0.6 C 0 km/h
907 23-12-2010 13:25:01 -0.6 C 4 g/m*3 -0.6 C 0 km/h
908 23-12-2010 13:37:02 -0.7 C 3.97 g/m*3 -0.7 C 0 km/h
909 23-12-2010 13:49:02 -0.7 C 3.97 g/m*3 -0.7 C 0 km/h
910 23-12-2010 14:01:02 -0.5 C 4.03 g/m*3 -0.5 C 0 km/h
911 23-12-2010 14:13:03 -0.6 C 4 g/m*3 -0.6 C 0 km/h
912 23-12-2010 14:25:01 -0.6 C 4 g/m*3 -0.6 C 0 km/h
913 23-12-2010 14:37:02 -0.6 C 4 g/m*3 -0.6 C 0 km/h
914 23-12-2010 14:49:01 -0.8 C 3.94 g/m*3 -0.8 C 0 km/h
915 23-12-2010 15:01:02 -0.8 C 3.94 g/m*3 -0.8 C 0 km/h
916 23-12-2010 15:13:02 -0.8 C 3.94 g/m*3 -0.8 C 0 km/h
917 23-12-2010 15:25:02 -0.9 C 3.91 g/m*3 -0.9 C 0 km/h
918 23-12-2010 15:37:01 -0.9 C 3.91 g/m*3 -0.9 C 0 km/h
919 23-12-2010 15:49:02 -0.9 C 3.96 g/m*3 -0.9 C 0 km/h
920 23-12-2010 16:01:01 -0.9 C 3.96 g/m*3 -0.9 C 0 km/h
921 23-12-2010 16:13:01 -0.8 C 3.99 g/m*3 -0.8 C 0 km/h
922 23-12-2010 16:25:02 -0.9 C 3.96 g/m*3 -0.9 C 0 km/h
923 23-12-2010 16:37:01 -0.9 C 3.96 g/m*3 -0.9 C 0 km/h
924 23-12-2010 16:49:02 -1 C 3.93 g/m*3 -1 C 0 km/h
925 23-12-2010 17:01:02 -1 C 3.93 g/m*3 -1 C 0 km/h
Sensor: Nr:Datum:Temp:Abs-Feuchte:Windchill:Wind:
Aussen-T/F 926 23-12-2010 17:13:02 -1 C 3.93 g/m*3 -1 C 0 km/h
927 23-12-2010 17:25:02 -1 C 3.93 g/m*3 -1 C 0 km/h
928 23-12-2010 17:37:03 -1 C 3.93 g/m*3 -1 C 0 km/h
929 23-12-2010 17:49:02 -1.1 C 3.91 g/m*3 -1.1 C 0 km/h
930 23-12-2010 18:01:02 -1.1 C 3.91 g/m*3 -1.1 C 0 km/h
931 23-12-2010 18:13:02 -1.1 C 3.91 g/m*3 -1.1 C 0 km/h
932 23-12-2010 18:25:01 -1.1 C 3.91 g/m*3 -1.1 C 0 km/h
933 23-12-2010 18:37:02 -1.2 C 3.88 g/m*3 -1.2 C 0 km/h
934 23-12-2010 18:49:02 -1.2 C 3.88 g/m*3 -1.2 C 0 km/h
935 23-12-2010 19:01:02 -1.2 C 3.88 g/m*3 -1.2 C 0 km/h
936 23-12-2010 19:13:02 -1.2 C 3.88 g/m*3 -1.2 C 0 km/h
937 23-12-2010 19:25:01 -1.3 C 3.85 g/m*3 -1.3 C 0 km/h
938 23-12-2010 19:37:02 -1.3 C 3.81 g/m*3 -1.3 C 0 km/h
939 23-12-2010 19:49:02 -1.3 C 3.81 g/m*3 -1.3 C 0 km/h
940 23-12-2010 20:01:02 -1.4 C 3.78 g/m*3 -1.4 C 0 km/h
941 23-12-2010 20:13:02 -1.3 C 3.85 g/m*3 -1.3 C 0 km/h
942 23-12-2010 20:25:02 -1.2 C 3.88 g/m*3 -1.2 C 0 km/h
943 23-12-2010 20:37:02 -1.2 C 3.83 g/m*3 -1.2 C 0 km/h
944 23-12-2010 20:49:02 -1.2 C 3.83 g/m*3 -1.2 C 0 km/h
945 23-12-2010 21:01:02 -1.2 C 3.83 g/m*3 -1.2 C 0 km/h
946 23-12-2010 21:13:02 -1.2 C 3.83 g/m*3 -1.2 C 0 km/h
947 23-12-2010 21:25:02 -1.1 C 3.86 g/m*3 -1.1 C 0 km/h
948 23-12-2010 21:37:01 -1 C 3.89 g/m*3 -1 C 0 km/h
949 23-12-2010 21:50:02 -1 C 3.89 g/m*3 -1 C 0 km/h
950 23-12-2010 22:02:02 -0.9 C 3.91 g/m*3 -0.9 C 0 km/h
Sensor: Nr:Datum:Temp:Abs-Feuchte:Windchill:Wind:
Aussen-T/F 951 23-12-2010 22:14:02 -1 C 3.89 g/m*3 -1 C 0 km/h
952 23-12-2010 22:26:02 -1 C 3.89 g/m*3 -1 C 0 km/h
953 23-12-2010 22:38:02 -0.9 C 3.96 g/m*3 -0.9 C 0 km/h
954 23-12-2010 22:50:02 -0.9 C 3.96 g/m*3 -0.9 C 0 km/h
955 23-12-2010 23:02:02 -0.9 C 3.96 g/m*3 -0.9 C 0 km/h
956 23-12-2010 23:14:02 -0.8 C 3.99 g/m*3 -0.8 C 0 km/h
957 23-12-2010 23:26:03 -0.7 C 4.02 g/m*3 -0.7 C 0 km/h
958 23-12-2010 23:38:03 -0.8 C 3.94 g/m*3 -0.8 C 0 km/h
959 23-12-2010 23:50:03 -0.8 C 3.99 g/m*3 -0.8 C 0 km/h
960 24-12-2010 00:02:03 -0.9 C 3.91 g/m*3 -0.9 C 0 km/h
961 24-12-2010 00:14:03 -0.9 C 3.91 g/m*3 -0.9 C 0 km/h
962 24-12-2010 00:26:03 -0.9 C 3.91 g/m*3 -0.9 C 0 km/h
963 24-12-2010 00:38:03 -0.9 C 3.91 g/m*3 -0.9 C 0 km/h
964 24-12-2010 00:50:03 -0.9 C 3.91 g/m*3 -0.9 C 0 km/h
965 24-12-2010 01:02:03 -0.9 C 3.91 g/m*3 -0.9 C 0 km/h
966 24-12-2010 01:14:03 -0.9 C 3.96 g/m*3 -0.9 C 0 km/h
967 24-12-2010 01:26:03 -0.7 C 4.02 g/m*3 -0.7 C 0 km/h
968 24-12-2010 01:38:03 -0.7 C 3.97 g/m*3 -0.7 C 0 km/h
969 24-12-2010 01:50:03 -0.5 C 4.03 g/m*3 -0.5 C 0 km/h
970 24-12-2010 02:02:03 -0.6 C 4 g/m*3 -0.6 C 0 km/h
971 24-12-2010 02:14:03 -0.6 C 4 g/m*3 -0.6 C 0 km/h
972 24-12-2010 02:26:03 -0.5 C 4.03 g/m*3 -0.5 C 0 km/h
973 24-12-2010 02:38:03 -0.4 C 4.05 g/m*3 -0.4 C 0 km/h
974 24-12-2010 02:50:03 -0.4 C 4.05 g/m*3 -0.4 C 0 km/h
975 24-12-2010 03:02:03 -0.4 C 4.05 g/m*3 -0.4 C 0 km/h
Sensor: Nr:Datum:Temp:Abs-Feuchte:Windchill:Wind:
Aussen-T/F 976 24-12-2010 03:14:03 -0.5 C 4.03 g/m*3 -0.5 C 0 km/h
977 24-12-2010 03:26:03 -0.5 C 4.03 g/m*3 -0.5 C 0 km/h
978 24-12-2010 03:38:04 -0.5 C 4.03 g/m*3 -0.5 C 0 km/h
979 24-12-2010 03:50:04 -0.5 C 4.03 g/m*3 -0.5 C 0 km/h
980 24-12-2010 04:02:04 -0.5 C 4.03 g/m*3 -0.5 C 0 km/h
981 24-12-2010 04:14:04 -0.5 C 4.03 g/m*3 -0.5 C 0 km/h
982 24-12-2010 04:26:04 -0.5 C 4.03 g/m*3 -0.5 C 0 km/h
983 24-12-2010 04:38:04 -0.5 C 4.03 g/m*3 -0.5 C 0 km/h
984 24-12-2010 04:50:04 -0.5 C 4.03 g/m*3 -0.5 C 0 km/h
985 24-12-2010 05:02:04 -0.5 C 3.98 g/m*3 -0.5 C 0 km/h
986 24-12-2010 05:14:04 -0.7 C 3.92 g/m*3 -0.7 C 0 km/h
987 24-12-2010 05:26:04 -0.7 C 3.92 g/m*3 -0.7 C 0 km/h
988 24-12-2010 05:38:04 -0.9 C 3.87 g/m*3 -0.9 C 0 km/h
989 24-12-2010 05:50:04 -0.9 C 3.87 g/m*3 -0.9 C 0 km/h
990 24-12-2010 06:02:04 -0.9 C 3.87 g/m*3 -0.9 C 0 km/h
991 24-12-2010 06:14:04 -1 C 3.8 g/m*3 -1 C 0 km/h
992 24-12-2010 06:26:04 -1 C 3.8 g/m*3 -1 C 0 km/h
993 24-12-2010 06:38:04 -0.9 C 3.78 g/m*3 -0.9 C 0 km/h
994 24-12-2010 06:50:04 -1 C 3.71 g/m*3 -1 C 0 km/h
995 24-12-2010 07:02:04 -1.1 C 3.68 g/m*3 -1.1 C 0 km/h
996 24-12-2010 07:14:04 -1.2 C 3.66 g/m*3 -1.2 C 0 km/h
997 24-12-2010 07:26:04 -1.2 C 3.61 g/m*3 -1.2 C 0 km/h
998 24-12-2010 07:38:04 -1.2 C 3.61 g/m*3 -1.2 C 0 km/h
999 24-12-2010 07:50:04 -1.3 C 3.63 g/m*3 -1.3 C 0 km/h
1000 24-12-2010 08:02:05 -1.3 C 3.63 g/m*3 -1.3 C 0 km/h
Sensor: Nr:Datum:Temp:Abs-Feuchte:Windchill:Wind:
Aussen-T/F 1001 24-12-2010 08:14:05 -1.4 C 3.65 g/m*3 -1.4 C 0 km/h
1002 24-12-2010 08:26:05 -1.5 C 3.62 g/m*3 -1.5 C 0 km/h
1003 24-12-2010 08:38:05 -1.6 C 3.64 g/m*3 -1.6 C 0 km/h
1004 24-12-2010 08:50:05 -1.6 C 3.64 g/m*3 -1.6 C 0 km/h
1005 24-12-2010 09:02:02 -1.7 C 3.66 g/m*3 -1.7 C 0 km/h
1006 24-12-2010 09:14:02 -1.7 C 3.66 g/m*3 -1.7 C 0 km/h
1007 24-12-2010 09:26:02 -1.7 C 3.66 g/m*3 -1.7 C 0 km/h
1008 24-12-2010 09:38:02 -1.7 C 3.66 g/m*3 -1.7 C 0 km/h
1009 24-12-2010 09:50:02 -1.7 C 3.66 g/m*3 -1.7 C 0 km/h
1010 24-12-2010 10:02:02 -1.7 C 3.66 g/m*3 -1.7 C 0 km/h
1011 24-12-2010 10:14:02 -1.6 C 3.68 g/m*3 -1.6 C 0 km/h
1012 24-12-2010 10:26:02 -1.6 C 3.68 g/m*3 -1.6 C 0 km/h
1013 24-12-2010 10:38:02 -1.5 C 3.67 g/m*3 -1.5 C 0 km/h
1014 24-12-2010 10:50:01 -1.3 C 3.72 g/m*3 -1.3 C 0 km/h
1015 24-12-2010 11:02:02 -1.5 C 3.67 g/m*3 -1.5 C 0 km/h
1016 24-12-2010 11:14:02 -1.3 C 3.72 g/m*3 -1.3 C 0 km/h
1017 24-12-2010 11:26:01 -1.3 C 3.67 g/m*3 -1.3 C 0 km/h
1018 24-12-2010 11:38:02 -1.2 C 3.66 g/m*3 -1.2 C 0 km/h
1019 24-12-2010 11:50:03 -1.3 C 3.63 g/m*3 -1.3 C 0 km/h
1020 24-12-2010 12:02:02 -1.3 C 3.59 g/m*3 -1.3 C 0 km/h
1021 24-12-2010 12:14:02 -1.3 C 3.59 g/m*3 -1.3 C 0 km/h
1022 24-12-2010 12:26:02 -1.6 C 3.51 g/m*3 -1.6 C 0 km/h
1023 24-12-2010 12:38:02 -1.4 C 3.56 g/m*3 -1.4 C 0 km/h
1024 24-12-2010 12:50:02 -1.1 C 3.64 g/m*3 -1.1 C 0 km/h
1025 24-12-2010 13:02:02 -1.3 C 3.54 g/m*3 -1.3 C 0 km/h
Sensor: Nr:Datum:Temp:Abs-Feuchte:Windchill:Wind:
Aussen-T/F 1026 24-12-2010 13:14:02 -1.4 C 3.52 g/m*3 -1.4 C 0 km/h
1027 24-12-2010 13:26:01 -1.4 C 3.52 g/m*3 -1.4 C 0 km/h
1028 24-12-2010 13:38:02 -1.4 C 3.52 g/m*3 -1.4 C 0 km/h
1029 24-12-2010 13:50:02 -1.4 C 3.52 g/m*3 -1.4 C 0 km/h
1030 24-12-2010 14:02:02 -1.4 C 3.52 g/m*3 -1.4 C 0 km/h
1031 24-12-2010 14:14:02 -1.4 C 3.52 g/m*3 -1.4 C 0 km/h
1032 24-12-2010 14:26:02 -1.4 C 3.52 g/m*3 -1.4 C 0 km/h
1033 24-12-2010 14:38:02 -1.4 C 3.52 g/m*3 -1.4 C 0 km/h
1034 24-12-2010 14:50:02 -1.4 C 3.52 g/m*3 -1.4 C 0 km/h
1035 24-12-2010 15:02:02 -1.4 C 3.52 g/m*3 -1.4 C 0 km/h
1036 24-12-2010 15:14:02 -1.4 C 3.52 g/m*3 -1.4 C 0 km/h
1037 24-12-2010 15:26:02 -2 C 3.46 g/m*3 -2 C 0 km/h
1038 24-12-2010 15:38:02 -2.2 C 3.41 g/m*3 -2.2 C 0 km/h
1039 24-12-2010 15:50:01 -2.2 C 3.41 g/m*3 -2.2 C 0 km/h
1040 24-12-2010 16:02:02 -2.2 C 3.41 g/m*3 -2.2 C 0 km/h
1041 24-12-2010 16:14:02 -2.4 C 3.36 g/m*3 -2.4 C 0 km/h
1042 24-12-2010 16:26:01 -2.5 C 3.34 g/m*3 -2.5 C 0 km/h
1043 24-12-2010 16:38:01 -2.5 C 3.34 g/m*3 -2.5 C 0 km/h
1044 24-12-2010 16:50:01 -2.5 C 3.3 g/m*3 -2.5 C 0 km/h
1045 24-12-2010 17:02:01 -2.5 C 3.26 g/m*3 -2.5 C 0 km/h
1046 24-12-2010 17:14:01 -2.5 C 3.26 g/m*3 -2.5 C 0 km/h
1047 24-12-2010 17:26:02 -2.5 C 3.21 g/m*3 -2.5 C 0 km/h
1048 24-12-2010 17:38:02 -2.6 C 3.19 g/m*3 -2.6 C 0 km/h
1049 24-12-2010 17:50:02 -2.7 C 3.17 g/m*3 -2.7 C 0 km/h
1050 24-12-2010 18:02:02 -2.7 C 3.25 g/m*3 -2.7 C 0 km/h
Sensor: Nr:Datum:Temp:Abs-Feuchte:Windchill:Wind:
Aussen-T/F 1051 24-12-2010 18:14:02 -2.8 C 3.23 g/m*3 -2.8 C 0 km/h
1052 24-12-2010 18:26:02 -2.8 C 3.23 g/m*3 -2.8 C 0 km/h
1053 24-12-2010 18:38:02 -2.9 C 3.2 g/m*3 -2.9 C 0 km/h
1054 24-12-2010 18:50:02 -2.8 C 3.23 g/m*3 -2.8 C 0 km/h
1055 24-12-2010 19:02:02 -2.9 C 3.16 g/m*3 -2.9 C 0 km/h
1056 24-12-2010 19:14:03 -2.9 C 3.16 g/m*3 -2.9 C 0 km/h
1057 24-12-2010 19:26:02 -2.9 C 3.13 g/m*3 -2.9 C 0 km/h
1058 24-12-2010 19:38:02 -3 C 3.1 g/m*3 -3 C 0 km/h
1059 24-12-2010 19:50:01 -3 C 3.1 g/m*3 -3 C 0 km/h
1060 24-12-2010 20:02:01 -3 C 3.1 g/m*3 -3 C 0 km/h
1061 24-12-2010 20:14:01 -3 C 3.14 g/m*3 -3 C 0 km/h
1062 24-12-2010 20:26:02 -3 C 3.1 g/m*3 -3 C 0 km/h
1063 24-12-2010 20:38:01 -3 C 3.1 g/m*3 -3 C 0 km/h
1064 24-12-2010 20:50:01 -3.1 C 3.08 g/m*3 -3.1 C 0 km/h
1065 24-12-2010 21:02:01 -3.1 C 3.08 g/m*3 -3.1 C 0 km/h
1066 24-12-2010 21:14:01 -3.2 C 3.06 g/m*3 -3.2 C 0 km/h
1067 24-12-2010 21:19:02 -3.2 C 3.06 g/m*3 -3.2 C 0 km/h
1068 24-12-2010 21:31:01 -3.3 C 3.04 g/m*3 -3.3 C 0 km/h
1069 24-12-2010 21:43:01 -3.3 C 3.04 g/m*3 -3.3 C 0 km/h
1070 24-12-2010 21:55:02 -3.3 C 3.08 g/m*3 -3.3 C 0 km/h
1071 24-12-2010 22:07:01 -3.4 C 3.05 g/m*3 -3.4 C 0 km/h
1072 24-12-2010 22:19:01 -3.5 C 3.03 g/m*3 -3.5 C 0 km/h
1073 24-12-2010 22:31:02 -3.6 C 3.01 g/m*3 -3.6 C 0 km/h
1074 24-12-2010 22:43:02 -3.6 C 3.01 g/m*3 -3.6 C 0 km/h
1075 24-12-2010 22:55:02 -3.7 C 2.99 g/m*3 -3.7 C 0 km/h
Sensor: Nr:Datum:Temp:Abs-Feuchte:Windchill:Wind:
Aussen-T/F 1076 24-12-2010 23:07:02 -3.7 C 2.99 g/m*3 -3.7 C 0 km/h
1077 24-12-2010 23:19:02 -3.7 C 2.99 g/m*3 -3.7 C 0 km/h
1078 24-12-2010 23:31:02 -3.7 C 2.99 g/m*3 -3.7 C 0 km/h
1079 24-12-2010 23:43:02 -3.8 C 2.97 g/m*3 -3.8 C 0 km/h
1080 24-12-2010 23:56:02 -3.8 C 2.97 g/m*3 -3.8 C 0 km/h
1081 25-12-2010 00:08:02 -3.8 C 2.97 g/m*3 -3.8 C 0 km/h
1082 25-12-2010 00:20:02 -3.8 C 2.97 g/m*3 -3.8 C 0 km/h
1083 25-12-2010 00:32:02 -3.8 C 2.97 g/m*3 -3.8 C 0 km/h
1084 25-12-2010 00:44:03 -3.8 C 2.93 g/m*3 -3.8 C 0 km/h
1085 25-12-2010 00:56:03 -3.9 C 2.87 g/m*3 -3.9 C 0 km/h
1086 25-12-2010 01:08:03 -3.9 C 2.87 g/m*3 -3.9 C 0 km/h
1087 25-12-2010 01:20:03 -3.9 C 2.87 g/m*3 -3.9 C 0 km/h
1088 25-12-2010 01:32:03 -3.9 C 2.87 g/m*3 -3.9 C 0 km/h
1089 25-12-2010 01:44:03 -3.9 C 2.87 g/m*3 -3.9 C 0 km/h
1090 25-12-2010 01:56:03 -4 C 2.89 g/m*3 -4 C 0 km/h
1091 25-12-2010 02:08:03 -4.1 C 2.87 g/m*3 -4.1 C 0 km/h
1092 25-12-2010 02:20:03 -4.1 C 2.91 g/m*3 -4.1 C 0 km/h
1093 25-12-2010 02:32:03 -4.1 C 2.87 g/m*3 -4.1 C 0 km/h
1094 25-12-2010 02:44:03 -4.1 C 2.87 g/m*3 -4.1 C 0 km/h
1095 25-12-2010 02:56:03 -4 C 2.85 g/m*3 -4 C 0 km/h
1096 25-12-2010 03:08:03 -4.1 C 2.83 g/m*3 -4.1 C 0 km/h
1097 25-12-2010 03:20:03 -4.1 C 2.83 g/m*3 -4.1 C 0 km/h
1098 25-12-2010 03:32:03 -4.2 C 2.81 g/m*3 -4.2 C 0 km/h
1099 25-12-2010 03:44:03 -4.2 C 2.81 g/m*3 -4.2 C 0 km/h
1100 25-12-2010 03:56:03 -4.2 C 2.78 g/m*3 -4.2 C 0 km/h
Sensor: Nr:Datum:Temp:Abs-Feuchte:Windchill:Wind:
Aussen-T/F 1101 25-12-2010 04:08:03 -4.2 C 2.74 g/m*3 -4.2 C 0 km/h
1102 25-12-2010 04:20:03 -4.2 C 2.7 g/m*3 -4.2 C 0 km/h
1103 25-12-2010 04:32:03 -4.2 C 2.67 g/m*3 -4.2 C 0 km/h
1104 25-12-2010 04:44:03 -4.3 C 2.65 g/m*3 -4.3 C 0 km/h
1105 25-12-2010 04:56:04 -4.4 C 2.63 g/m*3 -4.4 C 0 km/h
1106 25-12-2010 05:08:04 -4.4 C 2.63 g/m*3 -4.4 C 0 km/h
1107 25-12-2010 05:20:04 -4.4 C 2.6 g/m*3 -4.4 C 0 km/h
1108 25-12-2010 05:32:04 -4.5 C 2.58 g/m*3 -4.5 C 0 km/h
1109 25-12-2010 05:44:04 -4.5 C 2.58 g/m*3 -4.5 C 0 km/h
1110 25-12-2010 05:56:04 -4.5 C 2.54 g/m*3 -4.5 C 0 km/h
1111 25-12-2010 06:08:04 -4.6 C 2.52 g/m*3 -4.6 C 0 km/h
1112 25-12-2010 06:20:04 -4.6 C 2.52 g/m*3 -4.6 C 0 km/h
1113 25-12-2010 06:32:04 -4.6 C 2.52 g/m*3 -4.6 C 0 km/h
1114 25-12-2010 06:44:04 -4.6 C 2.52 g/m*3 -4.6 C 0 km/h
1115 25-12-2010 06:56:04 -4.7 C 2.47 g/m*3 -4.7 C 0 km/h
1116 25-12-2010 07:08:04 -4.7 C 2.44 g/m*3 -4.7 C 0 km/h
1117 25-12-2010 07:20:04 -4.7 C 2.44 g/m*3 -4.7 C 0 km/h
1118 25-12-2010 07:32:04 -4.7 C 2.44 g/m*3 -4.7 C 0 km/h
1119 25-12-2010 07:44:04 -4.7 C 2.47 g/m*3 -4.7 C 0 km/h
1120 25-12-2010 07:56:04 -4.8 C 2.45 g/m*3 -4.8 C 0 km/h
1121 25-12-2010 08:08:04 -4.7 C 2.47 g/m*3 -4.7 C 0 km/h
1122 25-12-2010 08:20:04 -4.7 C 2.47 g/m*3 -4.7 C 0 km/h
1123 25-12-2010 08:32:04 -4.8 C 2.49 g/m*3 -4.8 C 0 km/h
1124 25-12-2010 08:44:04 -4.9 C 2.47 g/m*3 -4.9 C 0 km/h
1125 25-12-2010 08:56:05 -4.9 C 2.47 g/m*3 -4.9 C 0 km/h
Sensor: Nr:Datum:Temp:Abs-Feuchte:Windchill:Wind:
Aussen-T/F 1126 25-12-2010 09:08:05 -4.9 C 2.43 g/m*3 -4.9 C 0 km/h
1127 25-12-2010 09:20:05 -4.8 C 2.45 g/m*3 -4.8 C 0 km/h
1128 25-12-2010 09:32:02 -4.9 C 2.43 g/m*3 -4.9 C 0 km/h
1129 25-12-2010 09:44:02 -4.8 C 2.42 g/m*3 -4.8 C 0 km/h
1130 25-12-2010 09:56:02 -4.7 C 2.44 g/m*3 -4.7 C 0 km/h
1131 25-12-2010 10:08:02 -4.7 C 2.4 g/m*3 -4.7 C 0 km/h
1132 25-12-2010 10:20:02 -4.7 C 2.37 g/m*3 -4.7 C 0 km/h
1133 25-12-2010 10:32:02 -4.7 C 2.33 g/m*3 -4.7 C 0 km/h
1134 25-12-2010 10:44:02 -4.6 C 2.31 g/m*3 -4.6 C 0 km/h
1135 25-12-2010 10:56:02 -4.2 C 2.38 g/m*3 -4.2 C 0 km/h
1136 25-12-2010 11:08:02 -4.5 C 2.29 g/m*3 -4.5 C 0 km/h
1137 25-12-2010 11:20:03 -4.1 C 2.29 g/m*3 -4.1 C 0 km/h
1138 25-12-2010 11:32:02 -4.3 C 2.18 g/m*3 -4.3 C 0 km/h
1139 25-12-2010 11:44:02 -4.9 C 2.06 g/m*3 -4.9 C 0 km/h
1140 25-12-2010 11:56:03 -4.7 C 2.09 g/m*3 -4.7 C 0 km/h
1141 25-12-2010 12:08:02 -4.9 C 2.06 g/m*3 -4.9 C 0 km/h
1142 25-12-2010 12:20:02 -5.2 C 2.01 g/m*3 -5.2 C 0 km/h
1143 25-12-2010 12:32:02 -4.9 C 2.09 g/m*3 -4.9 C 0 km/h
1144 25-12-2010 12:44:02 -4.9 C 2.09 g/m*3 -4.9 C 0 km/h
1145 25-12-2010 12:56:02 -5 C 2.08 g/m*3 -5 C 0 km/h
1146 25-12-2010 13:08:02 -4.6 C 2.17 g/m*3 -4.6 C 0 km/h
1147 25-12-2010 13:20:02 -4.5 C 2.19 g/m*3 -4.5 C 0 km/h
1148 25-12-2010 13:32:02 -4.7 C 2.19 g/m*3 -4.7 C 0 km/h
1149 25-12-2010 13:44:02 -5.1 C 2.13 g/m*3 -5.1 C 0 km/h
1150 25-12-2010 13:56:02 -4.7 C 2.23 g/m*3 -4.7 C 0 km/h
Sensor: Nr:Datum:Temp:Abs-Feuchte:Windchill:Wind:
Aussen-T/F 1151 25-12-2010 14:08:01 -5 C 2.11 g/m*3 -5 C 0 km/h
1152 25-12-2010 14:20:02 -4.9 C 2.13 g/m*3 -4.9 C 0 km/h
1153 25-12-2010 14:32:02 -4.9 C 2.09 g/m*3 -4.9 C 0 km/h
1154 25-12-2010 14:44:02 -4.8 C 2.11 g/m*3 -4.8 C 0 km/h
1155 25-12-2010 14:56:02 -5 C 2.08 g/m*3 -5 C 0 km/h
1156 25-12-2010 15:08:02 -5 C 2.11 g/m*3 -5 C 0 km/h
1157 25-12-2010 15:20:02 -5.4 C 2.05 g/m*3 -5.4 C 0 km/h
1158 25-12-2010 15:32:02 -5.6 C 2.05 g/m*3 -5.6 C 0 km/h
1159 25-12-2010 15:44:02 -5.7 C 2.1 g/m*3 -5.7 C 0 km/h
1160 25-12-2010 15:56:01 -6 C 2.12 g/m*3 -6 C 0 km/h
1161 25-12-2010 16:08:02 -6.4 C 2.12 g/m*3 -6.4 C 0 km/h
1162 25-12-2010 16:20:01 -6.7 C 2.11 g/m*3 -6.7 C 0 km/h
1163 25-12-2010 16:32:01 -6.8 C 2.12 g/m*3 -6.8 C 0 km/h
1164 25-12-2010 16:44:01 -7.3 C 2.07 g/m*3 -7.3 C 0 km/h
1165 25-12-2010 16:56:01 -6.9 C 2.19 g/m*3 -6.9 C 0 km/h
1166 25-12-2010 17:08:01 -7.4 C 2.12 g/m*3 -7.4 C 0 km/h
1167 25-12-2010 17:20:02 -7.6 C 2.11 g/m*3 -7.6 C 0 km/h
1168 25-12-2010 17:32:01 -7.8 C 2.08 g/m*3 -7.8 C 0 km/h
1169 25-12-2010 17:44:01 -7.3 C 2.19 g/m*3 -7.3 C 0 km/h
1170 25-12-2010 17:56:02 -7.5 C 2.13 g/m*3 -7.5 C 0 km/h
1171 25-12-2010 18:08:01 -7.6 C 2.14 g/m*3 -7.6 C 0 km/h
1172 25-12-2010 18:20:02 -7.5 C 2.16 g/m*3 -7.5 C 0 km/h
1173 25-12-2010 18:32:01 -7.4 C 2.2 g/m*3 -7.4 C 0 km/h
1174 25-12-2010 18:44:01 -7.4 C 2.17 g/m*3 -7.4 C 0 km/h
1175 25-12-2010 18:56:02 -7.4 C 2.17 g/m*3 -7.4 C 0 km/h
Sensor: Nr:Datum:Temp:Abs-Feuchte:Windchill:Wind:
Aussen-T/F 1176 25-12-2010 19:08:02 -7.4 C 2.17 g/m*3 -7.4 C 0 km/h
1177 25-12-2010 19:20:02 -7.4 C 2.17 g/m*3 -7.4 C 0 km/h
1178 25-12-2010 19:32:03 -7.4 C 2.17 g/m*3 -7.4 C 0 km/h
1179 25-12-2010 19:44:03 -7.4 C 2.17 g/m*3 -7.4 C 0 km/h
1180 25-12-2010 19:56:02 -7.4 C 2.17 g/m*3 -7.4 C 0 km/h
1181 25-12-2010 20:08:01 -7.4 C 2.17 g/m*3 -7.4 C 0 km/h
1182 25-12-2010 20:20:02 -8.8 C 2.04 g/m*3 -8.8 C 0 km/h
1183 25-12-2010 20:32:02 -9.2 C 1.98 g/m*3 -9.2 C 0 km/h
1184 25-12-2010 20:44:02 -8.6 C 2.09 g/m*3 -8.6 C 0 km/h
1185 25-12-2010 20:56:02 -7.7 C 2.26 g/m*3 -7.7 C 0 km/h
1186 25-12-2010 21:08:02 -7.6 C 2.31 g/m*3 -7.6 C 0 km/h
1187 25-12-2010 21:20:02 -7.7 C 2.26 g/m*3 -7.7 C 0 km/h
1188 25-12-2010 21:32:02 -7.6 C 2.28 g/m*3 -7.6 C 0 km/h
1189 25-12-2010 21:44:02 -7.2 C 2.35 g/m*3 -7.2 C 0 km/h
1190 25-12-2010 21:56:01 -6.9 C 2.37 g/m*3 -6.9 C 0 km/h
1191 25-12-2010 22:08:02 -6.8 C 2.36 g/m*3 -6.8 C 0 km/h
1192 25-12-2010 22:20:01 -6.9 C 2.31 g/m*3 -6.9 C 0 km/h
1193 25-12-2010 22:32:01 -6.8 C 2.33 g/m*3 -6.8 C 0 km/h
1194 25-12-2010 22:44:01 -6.8 C 2.27 g/m*3 -6.8 C 0 km/h
1195 25-12-2010 22:56:01 -6.7 C 2.26 g/m*3 -6.7 C 0 km/h
1196 25-12-2010 23:08:02 -6.8 C 2.18 g/m*3 -6.8 C 0 km/h
1197 25-12-2010 23:20:02 -6.8 C 2.18 g/m*3 -6.8 C 0 km/h
1198 25-12-2010 23:32:01 -6.9 C 2.16 g/m*3 -6.9 C 0 km/h
1199 25-12-2010 23:44:01 -6.8 C 2.18 g/m*3 -6.8 C 0 km/h
1200 25-12-2010 23:56:02 -6.8 C 2.18 g/m*3 -6.8 C 0 km/h
Sensor: Nr:Datum:Temp:Abs-Feuchte:Windchill:Wind:
Aussen-T/F 1201 26-12-2010 00:08:01 -6.8 C 2.18 g/m*3 -6.8 C 0 km/h
1202 26-12-2010 00:20:01 -6.9 C 2.16 g/m*3 -6.9 C 0 km/h
1203 26-12-2010 00:32:01 -7 C 2.12 g/m*3 -7 C 0 km/h
1204 26-12-2010 00:44:01 -7.3 C 2.07 g/m*3 -7.3 C 0 km/h
1205 26-12-2010 00:56:01 -7.4 C 2.09 g/m*3 -7.4 C 0 km/h
1206 26-12-2010 01:08:02 -7.8 C 2 g/m*3 -7.8 C 0 km/h
1207 26-12-2010 01:20:02 -7.9 C 2.01 g/m*3 -7.9 C 0 km/h
1208 26-12-2010 01:32:01 -8 C 2 g/m*3 -8 C 0 km/h
1209 26-12-2010 01:44:01 -8.2 C 1.97 g/m*3 -8.2 C 0 km/h
1210 26-12-2010 01:56:01 -8.1 C 1.98 g/m*3 -8.1 C 0 km/h
1211 26-12-2010 02:08:01 -8.6 C 1.88 g/m*3 -8.6 C 0 km/h
1212 26-12-2010 02:20:02 -8.7 C 1.9 g/m*3 -8.7 C 0 km/h
1213 26-12-2010 02:32:01 -8.8 C 1.88 g/m*3 -8.8 C 0 km/h
1214 26-12-2010 02:44:01 -8.9 C 1.87 g/m*3 -8.9 C 0 km/h
1215 26-12-2010 02:57:05 -8.9 C 1.87 g/m*3 -8.9 C 0 km/h
1216 26-12-2010 03:09:05 -9 C 1.83 g/m*3 -9 C 0 km/h
1217 26-12-2010 03:21:04 -9.1 C 1.81 g/m*3 -9.1 C 0 km/h
1218 26-12-2010 03:33:02 -9.1 C 1.81 g/m*3 -9.1 C 0 km/h
1219 26-12-2010 03:45:02 -9 C 1.83 g/m*3 -9 C 0 km/h
1220 26-12-2010 03:57:02 -9 C 1.83 g/m*3 -9 C 0 km/h
1221 26-12-2010 04:09:02 -9 C 1.83 g/m*3 -9 C 0 km/h
1222 26-12-2010 04:21:02 -9.2 C 1.83 g/m*3 -9.2 C 0 km/h
1223 26-12-2010 04:33:02 -9.1 C 1.86 g/m*3 -9.1 C 0 km/h
1224 26-12-2010 04:45:02 -8.9 C 1.89 g/m*3 -8.9 C 0 km/h
1225 26-12-2010 04:57:02 -9 C 1.85 g/m*3 -9 C 0 km/h
Sensor: Nr:Datum:Temp:Abs-Feuchte:Windchill:Wind:
Aussen-T/F 1226 26-12-2010 05:09:02 -8.8 C 1.91 g/m*3 -8.8 C 0 km/h
1227 26-12-2010 05:21:02 -8.6 C 1.91 g/m*3 -8.6 C 0 km/h
1228 26-12-2010 05:33:02 -8.6 C 1.91 g/m*3 -8.6 C 0 km/h
1229 26-12-2010 05:45:02 -8.2 C 1.97 g/m*3 -8.2 C 0 km/h
1230 26-12-2010 05:57:02 -8 C 2.02 g/m*3 -8 C 0 km/h
1231 26-12-2010 06:09:02 -7.6 C 2.06 g/m*3 -7.6 C 0 km/h
1232 26-12-2010 06:21:02 -7.4 C 2.09 g/m*3 -7.4 C 0 km/h
1233 26-12-2010 06:33:01 -7.3 C 2.1 g/m*3 -7.3 C 0 km/h
1234 26-12-2010 06:45:02 -7 C 2.15 g/m*3 -7 C 0 km/h
1235 26-12-2010 06:57:02 -6.9 C 2.16 g/m*3 -6.9 C 0 km/h
1236 26-12-2010 07:09:01 -6.7 C 2.2 g/m*3 -6.7 C 0 km/h
1237 26-12-2010 07:21:01 -6.4 C 2.25 g/m*3 -6.4 C 0 km/h
1238 26-12-2010 07:33:02 -6.2 C 2.28 g/m*3 -6.2 C 0 km/h
1239 26-12-2010 07:45:02 -6.2 C 2.25 g/m*3 -6.2 C 0 km/h
1240 26-12-2010 07:57:02 -6.2 C 2.25 g/m*3 -6.2 C 0 km/h
1241 26-12-2010 08:09:02 -6.1 C 2.3 g/m*3 -6.1 C 0 km/h
1242 26-12-2010 08:21:02 -5.9 C 2.36 g/m*3 -5.9 C 0 km/h
1243 26-12-2010 08:33:02 -5.8 C 2.35 g/m*3 -5.8 C 0 km/h
1244 26-12-2010 08:45:02 -5.8 C 2.38 g/m*3 -5.8 C 0 km/h
1245 26-12-2010 08:57:02 -5.6 C 2.45 g/m*3 -5.6 C 0 km/h
1246 26-12-2010 09:09:02 -5.4 C 2.51 g/m*3 -5.4 C 0 km/h
1247 26-12-2010 09:21:02 -5.2 C 2.55 g/m*3 -5.2 C 0 km/h
1248 26-12-2010 09:33:02 -4.7 C 2.64 g/m*3 -4.7 C 0 km/h
1249 26-12-2010 09:45:02 -4.6 C 2.63 g/m*3 -4.6 C 0 km/h
1250 26-12-2010 09:57:02 -4.5 C 2.65 g/m*3 -4.5 C 0 km/h
Sensor: Nr:Datum:Temp:Abs-Feuchte:Windchill:Wind:
Aussen-T/F 1251 26-12-2010 10:09:02 -4.5 C 2.65 g/m*3 -4.5 C 0 km/h
1252 26-12-2010 10:21:02 -4.4 C 2.67 g/m*3 -4.4 C 0 km/h
1253 26-12-2010 10:33:02 -4.4 C 2.67 g/m*3 -4.4 C 0 km/h
1254 26-12-2010 10:45:02 -4.1 C 2.69 g/m*3 -4.1 C 0 km/h
1255 26-12-2010 10:57:02 -3.8 C 2.71 g/m*3 -3.8 C 0 km/h
1256 26-12-2010 11:09:03 -3.6 C 2.71 g/m*3 -3.6 C 0 km/h
1257 26-12-2010 11:21:02 -3.5 C 2.69 g/m*3 -3.5 C 0 km/h
1258 26-12-2010 11:33:02 -3.7 C 2.65 g/m*3 -3.7 C 0 km/h
1259 26-12-2010 11:45:02 -3.5 C 2.69 g/m*3 -3.5 C 0 km/h
1260 26-12-2010 11:57:02 -3.3 C 2.69 g/m*3 -3.3 C 0 km/h
1261 26-12-2010 12:09:02 -3.4 C 2.71 g/m*3 -3.4 C 0 km/h
1262 26-12-2010 12:21:02 -3.3 C 2.73 g/m*3 -3.3 C 0 km/h
1263 26-12-2010 12:33:01 -3 C 2.83 g/m*3 -3 C 0 km/h
1264 26-12-2010 12:45:02 -3.1 C 2.81 g/m*3 -3.1 C 0 km/h
1265 26-12-2010 12:57:03 -2.9 C 2.85 g/m*3 -2.9 C 0 km/h
1266 26-12-2010 13:09:01 -2.8 C 2.87 g/m*3 -2.8 C 0 km/h
1267 26-12-2010 13:21:01 -2.6 C 2.87 g/m*3 -2.6 C 0 km/h
1268 26-12-2010 13:33:02 -2.7 C 2.81 g/m*3 -2.7 C 0 km/h
1269 26-12-2010 13:45:02 -2.8 C 2.83 g/m*3 -2.8 C 0 km/h
1270 26-12-2010 13:57:02 -2.7 C 2.89 g/m*3 -2.7 C 0 km/h
1271 26-12-2010 14:09:02 -2.8 C 2.91 g/m*3 -2.8 C 0 km/h
1272 26-12-2010 14:21:01 -2.7 C 2.97 g/m*3 -2.7 C 0 km/h
1273 26-12-2010 14:33:02 -2.4 C 3.07 g/m*3 -2.4 C 0 km/h
1274 26-12-2010 14:45:02 -2.7 C 3.01 g/m*3 -2.7 C 0 km/h
1275 26-12-2010 14:57:02 -2.7 C 3.05 g/m*3 -2.7 C 0 km/h
Sensor: Nr:Datum:Temp:Abs-Feuchte:Windchill:Wind:
Aussen-T/F 1276 26-12-2010 15:09:02 -2.6 C 3.11 g/m*3 -2.6 C 0 km/h
1277 26-12-2010 15:21:02 -2.6 C 3.15 g/m*3 -2.6 C 0 km/h
1278 26-12-2010 15:33:02 -2.8 C 3.11 g/m*3 -2.8 C 0 km/h
1279 26-12-2010 15:45:02 -2.8 C 3.15 g/m*3 -2.8 C 0 km/h
1280 26-12-2010 15:57:02 -2.8 C 3.15 g/m*3 -2.8 C 0 km/h
1281 26-12-2010 16:09:02 -2.8 C 3.15 g/m*3 -2.8 C 0 km/h
1282 26-12-2010 16:21:02 -2.8 C 3.15 g/m*3 -2.8 C 0 km/h
1283 26-12-2010 16:33:02 -2.9 C 3.16 g/m*3 -2.9 C 0 km/h
1284 26-12-2010 16:45:02 -2.9 C 3.16 g/m*3 -2.9 C 0 km/h
1285 26-12-2010 16:57:02 -2.9 C 3.16 g/m*3 -2.9 C 0 km/h
1286 26-12-2010 17:09:02 -2.8 C 3.19 g/m*3 -2.8 C 0 km/h
1287 26-12-2010 17:21:02 -2.7 C 3.17 g/m*3 -2.7 C 0 km/h
1288 26-12-2010 17:33:02 -2.8 C 3.15 g/m*3 -2.8 C 0 km/h
1289 26-12-2010 17:45:02 -2.9 C 3.16 g/m*3 -2.9 C 0 km/h
1290 26-12-2010 17:57:02 -2.9 C 3.16 g/m*3 -2.9 C 0 km/h
1291 26-12-2010 18:09:01 -3.2 C 3.1 g/m*3 -3.2 C 0 km/h
1292 26-12-2010 18:21:02 -3.1 C 3.16 g/m*3 -3.1 C 0 km/h
1293 26-12-2010 18:33:01 -2.8 C 3.23 g/m*3 -2.8 C 0 km/h
1294 26-12-2010 18:45:02 -2.7 C 3.21 g/m*3 -2.7 C 0 km/h
1295 26-12-2010 18:57:03 -2.7 C 3.17 g/m*3 -2.7 C 0 km/h
1296 26-12-2010 19:09:01 -2.8 C 3.15 g/m*3 -2.8 C 0 km/h
1297 26-12-2010 19:21:01 -2.7 C 3.17 g/m*3 -2.7 C 0 km/h
1298 26-12-2010 19:33:02 -2.7 C 3.17 g/m*3 -2.7 C 0 km/h
1299 26-12-2010 19:45:02 -2.7 C 3.21 g/m*3 -2.7 C 0 km/h
1300 26-12-2010 19:57:02 -2.7 C 3.21 g/m*3 -2.7 C 0 km/h
Sensor: Nr:Datum:Temp:Abs-Feuchte:Windchill:Wind:
Aussen-T/F 1301 26-12-2010 20:09:02 -3 C 3.14 g/m*3 -3 C 0 km/h
1302 26-12-2010 20:21:02 -3.5 C 3.03 g/m*3 -3.5 C 0 km/h
1303 26-12-2010 20:33:02 -2.9 C 3.24 g/m*3 -2.9 C 0 km/h
1304 26-12-2010 20:45:02 -2.8 C 3.23 g/m*3 -2.8 C 0 km/h
1305 26-12-2010 20:57:02 -3 C 3.14 g/m*3 -3 C 0 km/h
1306 26-12-2010 21:09:02 -3.5 C 3.03 g/m*3 -3.5 C 0 km/h
1307 26-12-2010 21:21:02 -3 C 3.18 g/m*3 -3 C 0 km/h
1308 26-12-2010 21:33:02 -3 C 3.14 g/m*3 -3 C 0 km/h
1309 26-12-2010 21:45:02 -3.5 C 3.03 g/m*3 -3.5 C 0 km/h
1310 26-12-2010 21:57:02 -3.5 C 3.03 g/m*3 -3.5 C 0 km/h
1311 26-12-2010 22:09:02 -3.2 C 3.14 g/m*3 -3.2 C 0 km/h
1312 26-12-2010 22:22:04 -3 C 3.14 g/m*3 -3 C 0 km/h
1313 26-12-2010 22:34:04 -3 C 3.1 g/m*3 -3 C 0 km/h
1314 26-12-2010 22:46:04 -2.9 C 3.13 g/m*3 -2.9 C 0 km/h
1315 26-12-2010 22:58:04 -3.1 C 3.12 g/m*3 -3.1 C 0 km/h
1316 26-12-2010 23:10:04 -3.1 C 3.12 g/m*3 -3.1 C 0 km/h
1317 26-12-2010 23:22:04 -2.8 C 3.19 g/m*3 -2.8 C 0 km/h
1318 26-12-2010 23:34:04 -2.6 C 3.19 g/m*3 -2.6 C 0 km/h
1319 26-12-2010 23:46:04 -2.5 C 3.21 g/m*3 -2.5 C 0 km/h
1320 26-12-2010 23:58:04 -2.6 C 3.19 g/m*3 -2.6 C 0 km/h
1321 27-12-2010 00:10:04 -2.7 C 3.17 g/m*3 -2.7 C 0 km/h
1322 27-12-2010 00:22:04 -2.8 C 3.19 g/m*3 -2.8 C 0 km/h
1323 27-12-2010 00:34:04 -2.7 C 3.21 g/m*3 -2.7 C 0 km/h
1324 27-12-2010 00:46:04 -2.6 C 3.23 g/m*3 -2.6 C 0 km/h
1325 27-12-2010 00:58:05 -2.4 C 3.28 g/m*3 -2.4 C 0 km/h
Sensor: Nr:Datum:Temp:Abs-Feuchte:Windchill:Wind:
Aussen-T/F 1326 27-12-2010 01:10:05 -2.3 C 3.26 g/m*3 -2.3 C 0 km/h
1327 27-12-2010 01:22:05 -1.9 C 3.35 g/m*3 -1.9 C 0 km/h
1328 27-12-2010 01:34:05 -1.9 C 3.31 g/m*3 -1.9 C 0 km/h
1329 27-12-2010 01:46:05 -1.8 C 3.33 g/m*3 -1.8 C 0 km/h
1330 27-12-2010 01:58:05 -1.7 C 3.31 g/m*3 -1.7 C 0 km/h
1331 27-12-2010 02:10:05 -1.6 C 3.34 g/m*3 -1.6 C 0 km/h
1332 27-12-2010 02:22:05 -1.5 C 3.36 g/m*3 -1.5 C 0 km/h
1333 27-12-2010 02:34:05 -1.6 C 3.34 g/m*3 -1.6 C 0 km/h
1334 27-12-2010 02:46:05 -1.5 C 3.36 g/m*3 -1.5 C 0 km/h
1335 27-12-2010 02:58:05 -1.8 C 3.33 g/m*3 -1.8 C 0 km/h
1336 27-12-2010 03:10:05 -1.5 C 3.41 g/m*3 -1.5 C 0 km/h
1337 27-12-2010 03:22:05 -1.4 C 3.43 g/m*3 -1.4 C 0 km/h
1338 27-12-2010 03:34:05 -1.4 C 3.39 g/m*3 -1.4 C 0 km/h
1339 27-12-2010 03:46:05 -1.3 C 3.41 g/m*3 -1.3 C 0 km/h
1340 27-12-2010 03:58:05 -1.3 C 3.41 g/m*3 -1.3 C 0 km/h
1341 27-12-2010 04:10:05 -1.3 C 3.36 g/m*3 -1.3 C 0 km/h
1342 27-12-2010 04:22:05 -1.3 C 3.36 g/m*3 -1.3 C 0 km/h
1343 27-12-2010 04:34:05 -1.3 C 3.36 g/m*3 -1.3 C 0 km/h
1344 27-12-2010 04:46:05 -1.3 C 3.36 g/m*3 -1.3 C 0 km/h
1345 27-12-2010 04:58:05 -1.3 C 3.36 g/m*3 -1.3 C 0 km/h
1346 27-12-2010 05:10:06 -1.3 C 3.36 g/m*3 -1.3 C 0 km/h
1347 27-12-2010 05:22:06 -1.3 C 3.36 g/m*3 -1.3 C 0 km/h
1348 27-12-2010 05:34:06 -1.3 C 3.36 g/m*3 -1.3 C 0 km/h
1349 27-12-2010 05:46:06 -1.3 C 3.36 g/m*3 -1.3 C 0 km/h
1350 27-12-2010 05:58:06 -1.4 C 3.39 g/m*3 -1.4 C 0 km/h
Sensor: Nr:Datum:Temp:Abs-Feuchte:Windchill:Wind:
Aussen-T/F 1351 27-12-2010 06:10:06 -1.4 C 3.39 g/m*3 -1.4 C 0 km/h
1352 27-12-2010 06:22:06 -1.4 C 3.39 g/m*3 -1.4 C 0 km/h
1353 27-12-2010 06:34:06 -1.5 C 3.36 g/m*3 -1.5 C 0 km/h
1354 27-12-2010 06:46:06 -1.4 C 3.39 g/m*3 -1.4 C 0 km/h
1355 27-12-2010 06:58:06 -1.5 C 3.36 g/m*3 -1.5 C 0 km/h
1356 27-12-2010 07:10:06 -1.6 C 3.34 g/m*3 -1.6 C 0 km/h
1357 27-12-2010 07:22:06 -1.5 C 3.36 g/m*3 -1.5 C 0 km/h
1358 27-12-2010 07:34:06 -1.5 C 3.36 g/m*3 -1.5 C 0 km/h
1359 27-12-2010 07:46:06 -1.7 C 3.31 g/m*3 -1.7 C 0 km/h
1360 27-12-2010 07:58:06 -1.8 C 3.29 g/m*3 -1.8 C 0 km/h
1361 27-12-2010 08:10:06 -1.8 C 3.33 g/m*3 -1.8 C 0 km/h
1362 27-12-2010 08:22:06 -1.8 C 3.29 g/m*3 -1.8 C 0 km/h
1363 27-12-2010 08:34:06 -1.9 C 3.27 g/m*3 -1.9 C 0 km/h
1364 27-12-2010 08:46:02 -1.9 C 3.27 g/m*3 -1.9 C 0 km/h
1365 27-12-2010 08:58:02 -1.9 C 3.27 g/m*3 -1.9 C 0 km/h
1366 27-12-2010 09:10:02 -1.8 C 3.25 g/m*3 -1.8 C 0 km/h
1367 27-12-2010 09:22:02 -1.8 C 3.25 g/m*3 -1.8 C 0 km/h
1368 27-12-2010 09:34:02 -1.8 C 3.25 g/m*3 -1.8 C 0 km/h
1369 27-12-2010 09:46:02 -1.8 C 3.25 g/m*3 -1.8 C 0 km/h
1370 27-12-2010 09:58:02 -1.7 C 3.23 g/m*3 -1.7 C 0 km/h
1371 27-12-2010 10:10:02 -1.6 C 3.25 g/m*3 -1.6 C 0 km/h
1372 27-12-2010 10:22:03 -1.4 C 3.3 g/m*3 -1.4 C 0 km/h
1373 27-12-2010 10:34:02 -1.4 C 3.3 g/m*3 -1.4 C 0 km/h
1374 27-12-2010 10:46:02 -1.4 C 3.25 g/m*3 -1.4 C 0 km/h
1375 27-12-2010 10:58:02 -1.3 C 3.28 g/m*3 -1.3 C 0 km/h
Sensor: Nr:Datum:Temp:Abs-Feuchte:Windchill:Wind:
Aussen-T/F 1376 27-12-2010 11:10:02 -1.2 C 3.3 g/m*3 -1.2 C 0 km/h
1377 27-12-2010 11:22:02 -1.2 C 3.25 g/m*3 -1.2 C 0 km/h
1378 27-12-2010 11:34:02 -1.2 C 3.25 g/m*3 -1.2 C 0 km/h
1379 27-12-2010 11:46:02 -1 C 3.3 g/m*3 -1 C 0 km/h
1380 27-12-2010 11:58:02 -1.2 C 3.21 g/m*3 -1.2 C 0 km/h
1381 27-12-2010 12:10:02 -0.8 C 3.25 g/m*3 -0.8 C 0 km/h
1382 27-12-2010 12:22:02 -1 C 3.21 g/m*3 -1 C 0 km/h
1383 27-12-2010 12:34:01 -1.1 C 3.19 g/m*3 -1.1 C 0 km/h
1384 27-12-2010 12:46:02 -1.1 C 3.23 g/m*3 -1.1 C 0 km/h
1385 27-12-2010 12:58:02 -1.1 C 3.23 g/m*3 -1.1 C 0 km/h
1386 27-12-2010 13:10:01 -1.2 C 3.25 g/m*3 -1.2 C 0 km/h
1387 27-12-2010 13:22:02 -0.9 C 3.32 g/m*3 -0.9 C 0 km/h
1388 27-12-2010 13:34:02 -1 C 3.25 g/m*3 -1 C 0 km/h
1389 27-12-2010 13:46:02 -0.8 C 3.3 g/m*3 -0.8 C 0 km/h
1390 27-12-2010 13:58:02 -0.5 C 3.32 g/m*3 -0.5 C 0 km/h
1391 27-12-2010 14:10:03 -0.9 C 3.23 g/m*3 -0.9 C 0 km/h
1392 27-12-2010 14:22:02 -1.1 C 3.23 g/m*3 -1.1 C 0 km/h
1393 27-12-2010 14:34:02 -1 C 3.3 g/m*3 -1 C 0 km/h
1394 27-12-2010 14:46:01 -1.1 C 3.28 g/m*3 -1.1 C 0 km/h
1395 27-12-2010 14:58:01 -1.1 C 3.32 g/m*3 -1.1 C 0 km/h
1396 27-12-2010 15:10:02 -1.2 C 3.3 g/m*3 -1.2 C 0 km/h
1397 27-12-2010 15:22:01 -1.3 C 3.32 g/m*3 -1.3 C 0 km/h
1398 27-12-2010 15:34:01 -1.3 C 3.36 g/m*3 -1.3 C 0 km/h
1399 27-12-2010 15:46:01 -1.2 C 3.34 g/m*3 -1.2 C 0 km/h
1400 27-12-2010 15:58:01 -1.5 C 3.32 g/m*3 -1.5 C 0 km/h
Sensor: Nr:Datum:Temp:Abs-Feuchte:Windchill:Wind:
Aussen-T/F 1401 27-12-2010 16:10:02 -1.9 C 3.23 g/m*3 -1.9 C 0 km/h
1402 27-12-2010 16:22:01 -2.1 C 3.26 g/m*3 -2.1 C 0 km/h
1403 27-12-2010 16:34:01 -2.3 C 3.26 g/m*3 -2.3 C 0 km/h
1404 27-12-2010 16:46:01 -2.5 C 3.26 g/m*3 -2.5 C 0 km/h
1405 27-12-2010 16:58:01 -2.7 C 3.25 g/m*3 -2.7 C 0 km/h
1406 27-12-2010 17:10:02 -3 C 3.22 g/m*3 -3 C 0 km/h
1407 27-12-2010 17:22:02 -3.3 C 3.19 g/m*3 -3.3 C 0 km/h
1408 27-12-2010 17:34:01 -3.3 C 3.23 g/m*3 -3.3 C 0 km/h
1409 27-12-2010 17:46:02 -3.1 C 3.32 g/m*3 -3.1 C 0 km/h
1410 27-12-2010 17:58:02 -3.1 C 3.32 g/m*3 -3.1 C 0 km/h
1411 27-12-2010 18:10:01 -3.1 C 3.35 g/m*3 -3.1 C 0 km/h
1412 27-12-2010 18:22:02 -3.2 C 3.33 g/m*3 -3.2 C 0 km/h
1413 27-12-2010 18:34:01 -3.2 C 3.33 g/m*3 -3.2 C 0 km/h
1414 27-12-2010 18:46:02 -3.2 C 3.33 g/m*3 -3.2 C 0 km/h
1415 27-12-2010 18:58:02 -3.2 C 3.33 g/m*3 -3.2 C 0 km/h
1416 27-12-2010 19:10:02 -3.4 C 3.28 g/m*3 -3.4 C 0 km/h
1417 27-12-2010 19:22:02 -3.6 C 3.24 g/m*3 -3.6 C 0 km/h
1418 27-12-2010 19:34:03 -3.7 C 3.21 g/m*3 -3.7 C 0 km/h
1419 27-12-2010 19:46:02 -4 C 3.15 g/m*3 -4 C 0 km/h
1420 27-12-2010 19:58:02 -4 C 3.15 g/m*3 -4 C 0 km/h
1421 27-12-2010 20:10:01 -4.1 C 3.16 g/m*3 -4.1 C 0 km/h
1422 27-12-2010 20:22:02 -4.1 C 3.16 g/m*3 -4.1 C 0 km/h
1423 27-12-2010 20:34:02 -4.4 C 3.09 g/m*3 -4.4 C 0 km/h
1424 27-12-2010 20:46:02 -4.3 C 3.12 g/m*3 -4.3 C 0 km/h
1425 27-12-2010 20:58:02 -4.6 C 3.05 g/m*3 -4.6 C 0 km/h
Sensor: Nr:Datum:Temp:Abs-Feuchte:Windchill:Wind:
Aussen-T/F 1426 27-12-2010 21:10:02 -4.6 C 3.05 g/m*3 -4.6 C 0 km/h
1427 27-12-2010 21:22:02 -4.5 C 3.07 g/m*3 -4.5 C 0 km/h
1428 27-12-2010 21:34:02 -4.5 C 3.07 g/m*3 -4.5 C 0 km/h
1429 27-12-2010 21:46:02 -4.5 C 3.07 g/m*3 -4.5 C 0 km/h
1430 27-12-2010 21:58:02 -3.9 C 3.24 g/m*3 -3.9 C 0 km/h
1431 27-12-2010 22:10:02 -3.8 C 3.27 g/m*3 -3.8 C 0 km/h
1432 27-12-2010 22:23:02 -4.5 C 3.07 g/m*3 -4.5 C 0 km/h
1433 27-12-2010 22:35:02 -4.5 C 3.07 g/m*3 -4.5 C 0 km/h
1434 27-12-2010 22:47:02 -3.9 C 3.21 g/m*3 -3.9 C 0 km/h
1435 27-12-2010 22:59:02 -4 C 3.18 g/m*3 -4 C 0 km/h
1436 27-12-2010 23:11:03 -3.9 C 3.24 g/m*3 -3.9 C 0 km/h
1437 27-12-2010 23:23:03 -3.9 C 3.21 g/m*3 -3.9 C 0 km/h
1438 27-12-2010 23:35:03 -4.3 C 3.12 g/m*3 -4.3 C 0 km/h
1439 27-12-2010 23:47:03 -4.7 C 3.03 g/m*3 -4.7 C 0 km/h
1440 27-12-2010 23:59:03 -4.9 C 2.95 g/m*3 -4.9 C 0 km/h
1441 28-12-2010 00:11:03 -4.7 C 3.03 g/m*3 -4.7 C 0 km/h
1442 28-12-2010 00:23:03 -4.5 C 3.07 g/m*3 -4.5 C 0 km/h
1443 28-12-2010 00:35:03 -4.5 C 3.07 g/m*3 -4.5 C 0 km/h
1444 28-12-2010 00:47:03 -4.3 C 3.12 g/m*3 -4.3 C 0 km/h
1445 28-12-2010 00:59:03 -4.3 C 3.12 g/m*3 -4.3 C 0 km/h
1446 28-12-2010 01:11:03 -4.1 C 3.16 g/m*3 -4.1 C 0 km/h
1447 28-12-2010 01:23:03 -4.4 C 3.09 g/m*3 -4.4 C 0 km/h
1448 28-12-2010 01:35:03 -4.4 C 3.09 g/m*3 -4.4 C 0 km/h
1449 28-12-2010 01:47:03 -4.3 C 3.12 g/m*3 -4.3 C 0 km/h
1450 28-12-2010 01:59:03 -4.3 C 3.12 g/m*3 -4.3 C 0 km/h
Sensor: Nr:Datum:Temp:Abs-Feuchte:Windchill:Wind:
Aussen-T/F 1451 28-12-2010 02:11:03 -4.1 C 3.16 g/m*3 -4.1 C 0 km/h
1452 28-12-2010 02:23:03 -4 C 3.18 g/m*3 -4 C 0 km/h
1453 28-12-2010 02:35:03 -4.1 C 3.16 g/m*3 -4.1 C 0 km/h
1454 28-12-2010 02:47:03 -4.2 C 3.14 g/m*3 -4.2 C 0 km/h
1455 28-12-2010 02:59:03 -4.4 C 3.09 g/m*3 -4.4 C 0 km/h
1456 28-12-2010 03:11:03 -4.2 C 3.14 g/m*3 -4.2 C 0 km/h
1457 28-12-2010 03:23:04 -4.2 C 3.14 g/m*3 -4.2 C 0 km/h
1458 28-12-2010 03:35:04 -4.5 C 3.04 g/m*3 -4.5 C 0 km/h
1459 28-12-2010 03:47:04 -4.5 C 3.04 g/m*3 -4.5 C 0 km/h
1460 28-12-2010 03:59:04 -4.4 C 3.06 g/m*3 -4.4 C 0 km/h
1461 28-12-2010 04:11:04 -4.2 C 3.14 g/m*3 -4.2 C 0 km/h
1462 28-12-2010 04:23:04 -4.2 C 3.14 g/m*3 -4.2 C 0 km/h
1463 28-12-2010 04:35:04 -4.2 C 3.14 g/m*3 -4.2 C 0 km/h
1464 28-12-2010 04:47:04 -4.2 C 3.14 g/m*3 -4.2 C 0 km/h
1465 28-12-2010 04:59:04 -4 C 3.18 g/m*3 -4 C 0 km/h
1466 28-12-2010 05:11:04 -3.9 C 3.21 g/m*3 -3.9 C 0 km/h
1467 28-12-2010 05:23:04 -3.8 C 3.23 g/m*3 -3.8 C 0 km/h
1468 28-12-2010 05:35:04 -3.8 C 3.23 g/m*3 -3.8 C 0 km/h
1469 28-12-2010 05:47:04 -3.6 C 3.27 g/m*3 -3.6 C 0 km/h
1470 28-12-2010 05:59:04 -3.8 C 3.23 g/m*3 -3.8 C 0 km/h
1471 28-12-2010 06:11:04 -3.6 C 3.27 g/m*3 -3.6 C 0 km/h
1472 28-12-2010 06:23:04 -3.7 C 3.25 g/m*3 -3.7 C 0 km/h
1473 28-12-2010 06:35:04 -3.8 C 3.23 g/m*3 -3.8 C 0 km/h
1474 28-12-2010 06:47:04 -3.8 C 3.23 g/m*3 -3.8 C 0 km/h
1475 28-12-2010 06:59:04 -3.8 C 3.23 g/m*3 -3.8 C 0 km/h
Sensor: Nr:Datum:Temp:Abs-Feuchte:Windchill:Wind:
Aussen-T/F 1476 28-12-2010 07:11:04 -3.7 C 3.25 g/m*3 -3.7 C 0 km/h
1477 28-12-2010 07:23:05 -3.7 C 3.21 g/m*3 -3.7 C 0 km/h
1478 28-12-2010 07:35:05 -3.7 C 3.21 g/m*3 -3.7 C 0 km/h
1479 28-12-2010 07:47:05 -3.7 C 3.21 g/m*3 -3.7 C 0 km/h
1480 28-12-2010 07:59:05 -3.8 C 3.19 g/m*3 -3.8 C 0 km/h
1481 28-12-2010 08:11:05 -3.7 C 3.21 g/m*3 -3.7 C 0 km/h
1482 28-12-2010 08:23:05 -3.7 C 3.21 g/m*3 -3.7 C 0 km/h
1483 28-12-2010 08:35:05 -3.6 C 3.24 g/m*3 -3.6 C 0 km/h
1484 28-12-2010 08:47:05 -3.5 C 3.26 g/m*3 -3.5 C 0 km/h
1485 28-12-2010 08:59:05 -3.3 C 3.31 g/m*3 -3.3 C 0 km/h
1486 28-12-2010 09:11:05 -3.1 C 3.35 g/m*3 -3.1 C 0 km/h
1487 28-12-2010 09:23:05 -3 C 3.38 g/m*3 -3 C 0 km/h
1488 28-12-2010 09:35:05 -2.7 C 3.45 g/m*3 -2.7 C 0 km/h
1489 28-12-2010 09:47:05 -2.5 C 3.46 g/m*3 -2.5 C 0 km/h
1490 28-12-2010 09:59:05 -2.1 C 3.56 g/m*3 -2.1 C 0 km/h
1491 28-12-2010 10:11:02 -1.7 C 3.62 g/m*3 -1.7 C 0 km/h
1492 28-12-2010 10:23:02 -1.4 C 3.65 g/m*3 -1.4 C 0 km/h
1493 28-12-2010 10:35:02 -1.1 C 3.68 g/m*3 -1.1 C 0 km/h
1494 28-12-2010 10:47:01 -0.7 C 3.6 g/m*3 -0.7 C 0 km/h
1495 28-12-2010 10:59:01 -0.7 C 3.51 g/m*3 -0.7 C 0 km/h
1496 28-12-2010 11:11:02 -0.8 C 3.44 g/m*3 -0.8 C 0 km/h
1497 28-12-2010 11:23:01 -0.7 C 3.51 g/m*3 -0.7 C 0 km/h
1498 28-12-2010 11:35:01 -0.6 C 3.49 g/m*3 -0.6 C 0 km/h
1499 28-12-2010 11:47:01 -0.3 C 3.46 g/m*3 -0.3 C 0 km/h
1500 28-12-2010 11:59:01 -0.3 C 3.42 g/m*3 -0.3 C 0 km/h
Sensor: Nr:Datum:Temp:Abs-Feuchte:Windchill:Wind:
Aussen-T/F 1501 28-12-2010 12:11:02 0.1 C 3.46 g/m*3 0.1 C 0 km/h
1502 28-12-2010 12:23:01 0.2 C 3.39 g/m*3 0.2 C 0 km/h
1503 28-12-2010 12:35:02 0.5 C 3.26 g/m*3 0.5 C 0 km/h
1504 28-12-2010 12:47:01 0.3 C 3.22 g/m*3 0.3 C 0 km/h
1505 28-12-2010 12:59:01 0.4 C 3.24 g/m*3 0.4 C 0 km/h
1506 28-12-2010 13:11:02 0.2 C 3.24 g/m*3 0.2 C 0 km/h
1507 28-12-2010 13:23:01 0.5 C 3.36 g/m*3 0.5 C 0 km/h
1508 28-12-2010 13:35:01 0.7 C 3.41 g/m*3 0.7 C 0 km/h
1509 28-12-2010 13:47:01 0.4 C 3.34 g/m*3 0.4 C 0 km/h
1510 28-12-2010 13:59:01 0 C 3.25 g/m*3 0 C 0 km/h
1511 28-12-2010 14:11:01 0.3 C 3.36 g/m*3 0.3 C 0 km/h
1512 28-12-2010 14:23:02 0 C 3.29 g/m*3 0 C 0 km/h
1513 28-12-2010 14:35:01 -0.1 C 3.27 g/m*3 -0.1 C 0 km/h
1514 28-12-2010 14:47:02 0 C 3.34 g/m*3 0 C 0 km/h
1515 28-12-2010 14:59:02 -0.2 C 3.39 g/m*3 -0.2 C 0 km/h
1516 28-12-2010 15:11:01 -0.4 C 3.39 g/m*3 -0.4 C 0 km/h
1517 28-12-2010 15:23:01 -0.5 C 3.42 g/m*3 -0.5 C 0 km/h
1518 28-12-2010 15:35:01 -0.6 C 3.44 g/m*3 -0.6 C 0 km/h
1519 28-12-2010 15:47:02 -0.6 C 3.44 g/m*3 -0.6 C 0 km/h
1520 28-12-2010 15:59:02 -0.6 C 3.39 g/m*3 -0.6 C 0 km/h
1521 28-12-2010 16:11:01 -0.6 C 3.39 g/m*3 -0.6 C 0 km/h
1522 28-12-2010 16:23:02 -0.7 C 3.37 g/m*3 -0.7 C 0 km/h
1523 28-12-2010 16:35:02 -0.7 C 3.37 g/m*3 -0.7 C 0 km/h
1524 28-12-2010 16:47:01 -0.7 C 3.42 g/m*3 -0.7 C 0 km/h
1525 28-12-2010 16:59:01 -0.7 C 3.42 g/m*3 -0.7 C 0 km/h
Sensor: Nr:Datum:Temp:Abs-Feuchte:Windchill:Wind:
Aussen-T/F 1526 28-12-2010 17:11:02 -0.7 C 3.42 g/m*3 -0.7 C 0 km/h
1527 28-12-2010 17:23:01 -0.7 C 3.42 g/m*3 -0.7 C 0 km/h
1528 28-12-2010 17:35:02 -0.7 C 3.42 g/m*3 -0.7 C 0 km/h
1529 28-12-2010 17:47:02 -0.7 C 3.42 g/m*3 -0.7 C 0 km/h
1530 28-12-2010 17:59:02 -0.7 C 3.42 g/m*3 -0.7 C 0 km/h
1531 28-12-2010 18:11:02 -0.8 C 3.44 g/m*3 -0.8 C 0 km/h
1532 28-12-2010 18:23:01 -0.8 C 3.44 g/m*3 -0.8 C 0 km/h
1533 28-12-2010 18:35:02 -0.8 C 3.35 g/m*3 -0.8 C 0 km/h
1534 28-12-2010 18:47:01 -0.9 C 3.32 g/m*3 -0.9 C 0 km/h
1535 28-12-2010 18:59:01 -1.1 C 3.37 g/m*3 -1.1 C 0 km/h
1536 28-12-2010 19:11:02 -1.1 C 3.41 g/m*3 -1.1 C 0 km/h
1537 28-12-2010 19:23:01 -1.1 C 3.41 g/m*3 -1.1 C 0 km/h
1538 28-12-2010 19:35:02 -1.2 C 3.43 g/m*3 -1.2 C 0 km/h
1539 28-12-2010 19:47:01 -1.2 C 3.52 g/m*3 -1.2 C 0 km/h
1540 28-12-2010 19:59:01 -1.4 C 3.47 g/m*3 -1.4 C 0 km/h
1541 28-12-2010 20:11:02 -1.2 C 3.48 g/m*3 -1.2 C 0 km/h
1542 28-12-2010 20:23:02 -1.2 C 3.48 g/m*3 -1.2 C 0 km/h
1543 28-12-2010 20:35:01 -1.4 C 3.43 g/m*3 -1.4 C 0 km/h
1544 28-12-2010 20:47:02 -1.5 C 3.41 g/m*3 -1.5 C 0 km/h
1545 28-12-2010 20:59:02 -1.7 C 3.36 g/m*3 -1.7 C 0 km/h
1546 28-12-2010 21:11:01 -1.9 C 3.31 g/m*3 -1.9 C 0 km/h
1547 28-12-2010 21:23:02 -2 C 3.33 g/m*3 -2 C 0 km/h
1548 28-12-2010 21:35:01 -2.1 C 3.35 g/m*3 -2.1 C 0 km/h
1549 28-12-2010 21:47:02 -1.8 C 3.46 g/m*3 -1.8 C 0 km/h
1550 28-12-2010 21:59:02 -1.5 C 3.54 g/m*3 -1.5 C 0 km/h
Sensor: Nr:Datum:Temp:Abs-Feuchte:Windchill:Wind:
Aussen-T/F 1551 28-12-2010 22:11:02 -1.2 C 3.61 g/m*3 -1.2 C 0 km/h
1552 28-12-2010 22:24:03 -1.3 C 3.59 g/m*3 -1.3 C 0 km/h
1553 28-12-2010 22:36:03 -1.3 C 3.59 g/m*3 -1.3 C 0 km/h
1554 28-12-2010 22:48:03 -1.3 C 3.59 g/m*3 -1.3 C 0 km/h
1555 28-12-2010 23:00:03 -1.3 C 3.54 g/m*3 -1.3 C 0 km/h
1556 28-12-2010 23:12:03 -1.3 C 3.59 g/m*3 -1.3 C 0 km/h
1557 28-12-2010 23:24:03 -1.3 C 3.59 g/m*3 -1.3 C 0 km/h
1558 28-12-2010 23:36:03 -1.3 C 3.59 g/m*3 -1.3 C 0 km/h
1559 28-12-2010 23:48:03 -1.2 C 3.61 g/m*3 -1.2 C 0 km/h
1560 29-12-2010 00:00:03 -1.3 C 3.54 g/m*3 -1.3 C 0 km/h
1561 29-12-2010 00:12:03 -1.4 C 3.52 g/m*3 -1.4 C 0 km/h
1562 29-12-2010 00:24:03 -1.3 C 3.59 g/m*3 -1.3 C 0 km/h
1563 29-12-2010 00:36:03 -1.3 C 3.59 g/m*3 -1.3 C 0 km/h
1564 29-12-2010 00:48:03 -1.3 C 3.59 g/m*3 -1.3 C 0 km/h
1565 29-12-2010 01:00:03 -1.3 C 3.59 g/m*3 -1.3 C 0 km/h
1566 29-12-2010 01:12:03 -1.3 C 3.63 g/m*3 -1.3 C 0 km/h
1567 29-12-2010 01:24:03 -1.3 C 3.63 g/m*3 -1.3 C 0 km/h
1568 29-12-2010 01:36:03 -1.3 C 3.63 g/m*3 -1.3 C 0 km/h
1569 29-12-2010 01:48:03 -1.3 C 3.63 g/m*3 -1.3 C 0 km/h
1570 29-12-2010 02:00:03 -1.3 C 3.63 g/m*3 -1.3 C 0 km/h
1571 29-12-2010 02:12:04 -1.3 C 3.63 g/m*3 -1.3 C 0 km/h
1572 29-12-2010 02:24:04 -1.3 C 3.63 g/m*3 -1.3 C 0 km/h
1573 29-12-2010 02:36:04 -1.3 C 3.63 g/m*3 -1.3 C 0 km/h
1574 29-12-2010 02:48:04 -1.3 C 3.67 g/m*3 -1.3 C 0 km/h
1575 29-12-2010 03:00:04 -1.2 C 3.66 g/m*3 -1.2 C 0 km/h
Sensor: Nr:Datum:Temp:Abs-Feuchte:Windchill:Wind:
Aussen-T/F 1576 29-12-2010 03:12:04 -1.3 C 3.63 g/m*3 -1.3 C 0 km/h
1577 29-12-2010 03:24:04 -1.2 C 3.7 g/m*3 -1.2 C 0 km/h
1578 29-12-2010 03:36:04 -1.2 C 3.7 g/m*3 -1.2 C 0 km/h
1579 29-12-2010 03:48:04 -1.2 C 3.7 g/m*3 -1.2 C 0 km/h
1580 29-12-2010 04:00:04 -1.2 C 3.7 g/m*3 -1.2 C 0 km/h
1581 29-12-2010 04:12:04 -1.2 C 3.7 g/m*3 -1.2 C 0 km/h
1582 29-12-2010 04:24:04 -1.3 C 3.63 g/m*3 -1.3 C 0 km/h
1583 29-12-2010 04:36:04 -1.3 C 3.63 g/m*3 -1.3 C 0 km/h
1584 29-12-2010 04:48:04 -1.4 C 3.65 g/m*3 -1.4 C 0 km/h
1585 29-12-2010 05:00:04 -1.4 C 3.65 g/m*3 -1.4 C 0 km/h
1586 29-12-2010 05:12:04 -1.3 C 3.67 g/m*3 -1.3 C 0 km/h
1587 29-12-2010 05:24:04 -1.3 C 3.67 g/m*3 -1.3 C 0 km/h
1588 29-12-2010 05:36:04 -1.3 C 3.67 g/m*3 -1.3 C 0 km/h
1589 29-12-2010 05:48:04 -1.2 C 3.7 g/m*3 -1.2 C 0 km/h
1590 29-12-2010 06:00:04 -1.2 C 3.7 g/m*3 -1.2 C 0 km/h
1591 29-12-2010 06:12:05 -1.3 C 3.67 g/m*3 -1.3 C 0 km/h
1592 29-12-2010 06:24:05 -1.2 C 3.74 g/m*3 -1.2 C 0 km/h
1593 29-12-2010 06:36:05 -1.2 C 3.74 g/m*3 -1.2 C 0 km/h
1594 29-12-2010 06:48:05 -1.1 C 3.77 g/m*3 -1.1 C 0 km/h
1595 29-12-2010 07:00:05 -1.1 C 3.77 g/m*3 -1.1 C 0 km/h
1596 29-12-2010 07:12:05 -1.1 C 3.77 g/m*3 -1.1 C 0 km/h
1597 29-12-2010 07:24:05 -1.1 C 3.77 g/m*3 -1.1 C 0 km/h
1598 29-12-2010 07:36:05 -1.1 C 3.82 g/m*3 -1.1 C 0 km/h
1599 29-12-2010 07:48:01 -1.1 C 3.82 g/m*3 -1.1 C 0 km/h
1600 29-12-2010 08:00:01 -1.1 C 3.82 g/m*3 -1.1 C 0 km/h
Sensor: Nr:Datum:Temp:Abs-Feuchte:Windchill:Wind:
Aussen-T/F 1601 29-12-2010 08:12:02 -1.1 C 3.82 g/m*3 -1.1 C 0 km/h
1602 29-12-2010 08:24:01 -1.2 C 3.79 g/m*3 -1.2 C 0 km/h
1603 29-12-2010 08:36:01 -1.1 C 3.86 g/m*3 -1.1 C 0 km/h
1604 29-12-2010 08:48:01 -1 C 3.89 g/m*3 -1 C 0 km/h
1605 29-12-2010 09:00:01 -0.9 C 3.91 g/m*3 -0.9 C 0 km/h
1606 29-12-2010 09:12:02 -0.9 C 3.87 g/m*3 -0.9 C 0 km/h
1607 29-12-2010 09:24:02 -0.7 C 3.92 g/m*3 -0.7 C 0 km/h
1608 29-12-2010 09:36:01 -0.7 C 3.88 g/m*3 -0.7 C 0 km/h
1609 29-12-2010 09:48:01 -0.5 C 3.84 g/m*3 -0.5 C 0 km/h
1610 29-12-2010 10:00:01 -0.2 C 3.87 g/m*3 -0.2 C 0 km/h
1611 29-12-2010 10:12:02 0 C 3.78 g/m*3 0 C 0 km/h
1612 29-12-2010 10:24:01 0.2 C 3.73 g/m*3 0.2 C 0 km/h
1613 29-12-2010 10:36:01 0.3 C 3.71 g/m*3 0.3 C 0 km/h
1614 29-12-2010 10:48:01 0.4 C 3.64 g/m*3 0.4 C 0 km/h
1615 29-12-2010 11:00:01 0.4 C 3.64 g/m*3 0.4 C 0 km/h
1616 29-12-2010 11:12:02 0.6 C 3.64 g/m*3 0.6 C 0 km/h
1617 29-12-2010 11:24:01 0.6 C 3.59 g/m*3 0.6 C 0 km/h
1618 29-12-2010 11:36:01 0.7 C 3.61 g/m*3 0.7 C 0 km/h
1619 29-12-2010 11:48:01 0.6 C 3.53 g/m*3 0.6 C 0 km/h
1620 29-12-2010 12:00:01 0.9 C 3.66 g/m*3 0.9 C 0 km/h
1621 29-12-2010 12:12:01 0.9 C 3.61 g/m*3 0.9 C 0 km/h
1622 29-12-2010 12:24:02 0.7 C 3.56 g/m*3 0.7 C 0 km/h
1623 29-12-2010 12:36:01 1 C 3.53 g/m*3 1 C 0 km/h
1624 29-12-2010 12:48:03 0.9 C 3.56 g/m*3 0.9 C 0 km/h
1625 29-12-2010 13:00:03 1.3 C 3.66 g/m*3 1.3 C 0 km/h
Sensor: Nr:Datum:Temp:Abs-Feuchte:Windchill:Wind:
Aussen-T/F 1626 29-12-2010 13:12:02 1.2 C 3.58 g/m*3 1.2 C 0 km/h
1627 29-12-2010 13:24:02 1.4 C 3.63 g/m*3 1.4 C 0 km/h
1628 29-12-2010 13:36:02 1.5 C 3.6 g/m*3 1.5 C 0 km/h
1629 29-12-2010 13:48:02 1.3 C 3.6 g/m*3 1.3 C 0 km/h
1630 29-12-2010 14:00:02 1.6 C 3.68 g/m*3 1.6 C 0 km/h
1631 29-12-2010 14:12:01 1.7 C 3.65 g/m*3 1.7 C 0 km/h
1632 29-12-2010 14:24:02 1.7 C 3.65 g/m*3 1.7 C 0 km/h
1633 29-12-2010 14:36:02 2.1 C 3.69 g/m*3 2.1 C 0 km/h
1634 29-12-2010 14:48:01 1.7 C 3.65 g/m*3 1.7 C 0 km/h
1635 29-12-2010 15:00:01 1.3 C 3.66 g/m*3 1.3 C 0 km/h
1636 29-12-2010 15:12:02 1.3 C 3.71 g/m*3 1.3 C 0 km/h
1637 29-12-2010 15:24:01 1.2 C 3.74 g/m*3 1.2 C 0 km/h
1638 29-12-2010 15:36:01 1.1 C 3.76 g/m*3 1.1 C 0 km/h
1639 29-12-2010 15:48:01 1 C 3.79 g/m*3 1 C 0 km/h
1640 29-12-2010 16:00:01 0.8 C 3.84 g/m*3 0.8 C 0 km/h
1641 29-12-2010 16:12:02 0.7 C 3.81 g/m*3 0.7 C 0 km/h
1642 29-12-2010 16:24:01 0.6 C 3.89 g/m*3 0.6 C 0 km/h
1643 29-12-2010 16:36:02 0.5 C 3.86 g/m*3 0.5 C 0 km/h
1644 29-12-2010 16:48:01 0.5 C 3.86 g/m*3 0.5 C 0 km/h
1645 29-12-2010 17:00:01 0.4 C 3.84 g/m*3 0.4 C 0 km/h
1646 29-12-2010 17:12:02 0.3 C 3.81 g/m*3 0.3 C 0 km/h
1647 29-12-2010 17:24:01 0.3 C 3.86 g/m*3 0.3 C 0 km/h
1648 29-12-2010 17:36:02 0.2 C 3.88 g/m*3 0.2 C 0 km/h
1649 29-12-2010 17:48:01 0.2 C 3.88 g/m*3 0.2 C 0 km/h
1650 29-12-2010 18:00:01 0.2 C 3.88 g/m*3 0.2 C 0 km/h
Sensor: Nr:Datum:Temp:Abs-Feuchte:Windchill:Wind:
Aussen-T/F 1651 29-12-2010 18:12:02 0.2 C 3.88 g/m*3 0.2 C 0 km/h
1652 29-12-2010 18:24:02 0.1 C 3.85 g/m*3 0.1 C 0 km/h
1653 29-12-2010 18:36:01 0.1 C 3.9 g/m*3 0.1 C 0 km/h
1654 29-12-2010 18:48:02 0.1 C 3.95 g/m*3 0.1 C 0 km/h
1655 29-12-2010 19:00:02 0.1 C 3.95 g/m*3 0.1 C 0 km/h
1656 29-12-2010 19:12:01 0.1 C 3.95 g/m*3 0.1 C 0 km/h
1657 29-12-2010 19:24:02 0.1 C 4 g/m*3 0.1 C 0 km/h
1658 29-12-2010 19:36:01 0 C 3.97 g/m*3 0 C 0 km/h
1659 29-12-2010 19:48:02 0 C 3.97 g/m*3 0 C 0 km/h
1660 29-12-2010 20:00:02 0 C 3.97 g/m*3 0 C 0 km/h
1661 29-12-2010 20:12:01 0 C 3.97 g/m*3 0 C 0 km/h
1662 29-12-2010 20:24:01 0 C 3.97 g/m*3 0 C 0 km/h
1663 29-12-2010 20:36:01 -0.1 C 3.95 g/m*3 -0.1 C 0 km/h
1664 29-12-2010 20:48:02 -0.1 C 3.95 g/m*3 -0.1 C 0 km/h
1665 29-12-2010 21:00:02 -0.1 C 3.95 g/m*3 -0.1 C 0 km/h
1666 29-12-2010 21:12:02 -0.2 C 3.92 g/m*3 -0.2 C 0 km/h
1667 29-12-2010 21:24:02 -0.2 C 3.92 g/m*3 -0.2 C 0 km/h
1668 29-12-2010 21:36:02 -0.2 C 3.92 g/m*3 -0.2 C 0 km/h
1669 29-12-2010 21:48:01 -0.2 C 3.92 g/m*3 -0.2 C 0 km/h
1670 29-12-2010 22:00:01 -0.2 C 3.92 g/m*3 -0.2 C 0 km/h
1671 29-12-2010 22:12:02 -0.3 C 3.89 g/m*3 -0.3 C 0 km/h
1672 29-12-2010 22:24:01 -0.3 C 3.84 g/m*3 -0.3 C 0 km/h
1673 29-12-2010 22:36:01 -0.3 C 3.8 g/m*3 -0.3 C 0 km/h
1674 29-12-2010 22:48:01 -0.5 C 3.74 g/m*3 -0.5 C 0 km/h
1675 29-12-2010 23:00:01 -0.6 C 3.76 g/m*3 -0.6 C 0 km/h
Sensor: Nr:Datum:Temp:Abs-Feuchte:Windchill:Wind:
Aussen-T/F 1676 29-12-2010 23:12:02 -0.6 C 3.81 g/m*3 -0.6 C 0 km/h
1677 29-12-2010 23:24:02 -0.7 C 3.78 g/m*3 -0.7 C 0 km/h
1678 29-12-2010 23:36:01 -0.7 C 3.83 g/m*3 -0.7 C 0 km/h
1679 29-12-2010 23:49:59 -0.9 C 3.78 g/m*3 -0.9 C 0 km/h

Legende:
   Min
   Max


Maximal/Minimal-Werte vom 16.12.2010 - 29.12.2010

Sensor Min Max Avg
Temp
(Aussen-T/F)
-9.2 °C
25-12-2010  20:32:02
5.1 °C
19-12-2010  23:46:01
-2.14 °C
Abs-Feuchte
(Aussen-T/F)
1.81 g/m*3
26-12-2010  03:21:04
5.45 g/m*3
19-12-2010  23:10:02
3.42 g/m*3
Windchill
(Aussen-T/F)
-9.2 C
25-12-2010  20:32:02
5.1 C
19-12-2010  23:46:01
-2.14 C

Die Daten stammen von einer Davis Vantage Pro 2 Wetter-Station und werden unter Linux mit der Software wview2wettercgi und aufbereitet. Alle Angaben erfolgen ohne Gewähr für ihre Vollständigkeit oder Richtigkeit.
Kontakt: Rainer Krienke krienke@uni-koblenz.de . Meine Webseiten an der Uni Koblenz oder privat.
Version: $Revision: 0.78 $